<?xml version='1.0' encoding='UTF-8'?>
<gpx version="1.1" creator="https://www.komoot.de" xmlns="http://www.topografix.com/GPX/1/1" xmlns:xsi="http://www.w3.org/2001/XMLSchema-instance" xsi:schemaLocation="http://www.topografix.com/GPX/1/1 http://www.topografix.com/GPX/1/1/gpx.xsd">
  <metadata>
    <name>GPX Download: Hainburger Donaubrücke – Stopfenreuther Arm Runde von Bad Deutsch Altenburg</name>
    <author>
      <link href="https://www.komoot.de">
        <text>komoot</text>
        <type>text/html</type>
      </link>
    </author>
  </metadata>
  <wpt lat="48.145157" lon="16.908980">
    <name>Andreas-Maurer-Brücke</name>
    <sym>Bridge</sym>
  </wpt>
  <wpt lat="48.146518" lon="16.908064">
    <name>View back to Hainburg</name>
    <sym>Flag, Blue</sym>
  </wpt>
  <wpt lat="48.147739" lon="16.907184">
    <name>Hainburger Donaubrücke</name>
    <sym>Bridge</sym>
  </wpt>
  <wpt lat="48.232584" lon="16.708268">
    <name>Rastplatz am Marchfeldkanal</name>
    <sym>Picnic Area</sym>
  </wpt>
  <wpt lat="48.227814" lon="16.693579">
    <name>Fahrrad-Reparaturstation und Picknickplatz im Landschaftspark</name>
    <sym>Picnic Area</sym>
  </wpt>
  <wpt lat="48.158702" lon="16.680730">
    <name>Lobfeld</name>
    <sym>Flag, Blue</sym>
  </wpt>
  <wpt lat="48.144799" lon="16.700883">
    <name>Schloss Orth an der Donau, Nationalparkzentrum</name>
    <sym>Flag, Blue</sym>
  </wpt>
  <wpt lat="48.144547" lon="16.701611">
    <name>Trinkwasserbrunnen am Schloss Orth</name>
    <sym>Picnic Area</sym>
  </wpt>
  <wpt lat="48.149119" lon="16.902550">
    <name>Stopfenreuther Arm</name>
    <sym>Flag, Blue</sym>
  </wpt>
  <wpt lat="48.149211" lon="16.906008">
    <name>Stopfenreuther Arm</name>
    <sym>Flag, Blue</sym>
  </wpt>
  <trk>
    <name>GPX Download: Hainburger Donaubrücke – Stopfenreuther Arm Runde von Bad Deutsch Altenburg</name>
    <trkseg>
      <trkpt lat="48.137940" lon="16.904493">
        <ele>148.431904</ele>
        <time>2026-05-06T10:51:13.261Z</time>
      </trkpt>
      <trkpt lat="48.137826" lon="16.904556">
        <ele>148.431904</ele>
        <time>2026-05-06T10:51:15.927Z</time>
      </trkpt>
      <trkpt lat="48.137769" lon="16.904529">
        <ele>148.431904</ele>
        <time>2026-05-06T10:51:17.237Z</time>
      </trkpt>
      <trkpt lat="48.137673" lon="16.904261">
        <ele>148.431904</ele>
        <time>2026-05-06T10:51:21.723Z</time>
      </trkpt>
      <trkpt lat="48.138447" lon="16.903633">
        <ele>148.232785</ele>
        <time>2026-05-06T10:51:40.929Z</time>
      </trkpt>
      <trkpt lat="48.139222" lon="16.903321">
        <ele>147.795157</ele>
        <time>2026-05-06T10:51:57.688Z</time>
      </trkpt>
      <trkpt lat="48.139430" lon="16.903301">
        <ele>147.681492</ele>
        <time>2026-05-06T10:52:01.864Z</time>
      </trkpt>
      <trkpt lat="48.139559" lon="16.903289">
        <ele>147.611007</ele>
        <time>2026-05-06T10:52:04.415Z</time>
      </trkpt>
      <trkpt lat="48.139879" lon="16.903263">
        <ele>147.443710</ele>
        <time>2026-05-06T10:52:10.470Z</time>
      </trkpt>
      <trkpt lat="48.140187" lon="16.903246">
        <ele>147.360558</ele>
        <time>2026-05-06T10:52:16.304Z</time>
      </trkpt>
      <trkpt lat="48.140305" lon="16.903237">
        <ele>147.328681</ele>
        <time>2026-05-06T10:52:18.530Z</time>
      </trkpt>
      <trkpt lat="48.140334" lon="16.903343">
        <ele>147.308055</ele>
        <time>2026-05-06T10:52:20.036Z</time>
      </trkpt>
      <trkpt lat="48.140368" lon="16.903373">
        <ele>147.297410</ele>
        <time>2026-05-06T10:52:20.756Z</time>
      </trkpt>
      <trkpt lat="48.140337" lon="16.903518">
        <ele>147.269998</ele>
        <time>2026-05-06T10:52:22.757Z</time>
      </trkpt>
      <trkpt lat="48.140336" lon="16.903733">
        <ele>147.231290</ele>
        <time>2026-05-06T10:52:25.588Z</time>
      </trkpt>
      <trkpt lat="48.140363" lon="16.903908">
        <ele>147.198952</ele>
        <time>2026-05-06T10:52:27.988Z</time>
      </trkpt>
      <trkpt lat="48.140419" lon="16.904078">
        <ele>147.164820</ele>
        <time>2026-05-06T10:52:30.681Z</time>
      </trkpt>
      <trkpt lat="48.140526" lon="16.904402">
        <ele>147.099736</ele>
        <time>2026-05-06T10:52:36.403Z</time>
      </trkpt>
      <trkpt lat="48.140765" lon="16.905142">
        <ele>146.995133</ele>
        <time>2026-05-06T10:52:49.824Z</time>
      </trkpt>
      <trkpt lat="48.140907" lon="16.905574">
        <ele>147.176581</ele>
        <time>2026-05-06T10:52:58.267Z</time>
      </trkpt>
      <trkpt lat="48.141067" lon="16.906080">
        <ele>147.387555</ele>
        <time>2026-05-06T10:53:08.216Z</time>
      </trkpt>
      <trkpt lat="48.141368" lon="16.907157">
        <ele>147.827503</ele>
        <time>2026-05-06T10:53:27.182Z</time>
      </trkpt>
      <trkpt lat="48.141416" lon="16.907396">
        <ele>147.921544</ele>
        <time>2026-05-06T10:53:30.858Z</time>
      </trkpt>
      <trkpt lat="48.141519" lon="16.908194">
        <ele>148.321087</ele>
        <time>2026-05-06T10:53:42.594Z</time>
      </trkpt>
      <trkpt lat="48.141567" lon="16.908937">
        <ele>148.708823</ele>
        <time>2026-05-06T10:53:54.394Z</time>
      </trkpt>
      <trkpt lat="48.141573" lon="16.910011">
        <ele>149.266702</ele>
        <time>2026-05-06T10:54:14.167Z</time>
      </trkpt>
      <trkpt lat="48.141538" lon="16.910413">
        <ele>149.602184</ele>
        <time>2026-05-06T10:54:21.496Z</time>
      </trkpt>
      <trkpt lat="48.141582" lon="16.910794">
        <ele>150.064712</ele>
        <time>2026-05-06T10:54:29.155Z</time>
      </trkpt>
      <trkpt lat="48.141553" lon="16.910874">
        <ele>150.173617</ele>
        <time>2026-05-06T10:54:30.745Z</time>
      </trkpt>
      <trkpt lat="48.141526" lon="16.911675">
        <ele>151.132997</ele>
        <time>2026-05-06T10:54:47.993Z</time>
      </trkpt>
      <trkpt lat="48.141517" lon="16.911797">
        <ele>151.279822</ele>
        <time>2026-05-06T10:54:50.404Z</time>
      </trkpt>
      <trkpt lat="48.140527" lon="16.912361">
        <ele>152.804438</ele>
        <time>2026-05-06T10:55:20.964Z</time>
      </trkpt>
      <trkpt lat="48.140517" lon="16.912325">
        <ele>152.820624</ele>
        <time>2026-05-06T10:55:21.649Z</time>
      </trkpt>
      <trkpt lat="48.141315" lon="16.911650">
        <ele>153.390628</ele>
        <time>2026-05-06T10:55:45.012Z</time>
      </trkpt>
      <trkpt lat="48.141341" lon="16.911595">
        <ele>153.418606</ele>
        <time>2026-05-06T10:55:45.948Z</time>
      </trkpt>
      <trkpt lat="48.145150" lon="16.908956">
        <ele>152.096165</ele>
        <time>2026-05-06T10:57:12.781Z</time>
      </trkpt>
      <trkpt lat="48.146504" lon="16.908018">
        <ele>151.407394</ele>
        <time>2026-05-06T10:57:43.693Z</time>
      </trkpt>
      <trkpt lat="48.147734" lon="16.907166">
        <ele>150.829489</ele>
        <time>2026-05-06T10:58:11.774Z</time>
      </trkpt>
      <trkpt lat="48.147841" lon="16.907091">
        <ele>150.779831</ele>
        <time>2026-05-06T10:58:14.220Z</time>
      </trkpt>
      <trkpt lat="48.156889" lon="16.900826">
        <ele>146.414099</ele>
        <time>2026-05-06T11:01:40.869Z</time>
      </trkpt>
      <trkpt lat="48.157432" lon="16.900444">
        <ele>146.159979</ele>
        <time>2026-05-06T11:01:53.468Z</time>
      </trkpt>
      <trkpt lat="48.157452" lon="16.900479">
        <ele>146.146955</ele>
        <time>2026-05-06T11:01:54.093Z</time>
      </trkpt>
      <trkpt lat="48.157602" lon="16.900332">
        <ele>146.071031</ele>
        <time>2026-05-06T11:01:57.854Z</time>
      </trkpt>
      <trkpt lat="48.157626" lon="16.900229">
        <ele>146.040197</ele>
        <time>2026-05-06T11:01:59.401Z</time>
      </trkpt>
      <trkpt lat="48.161570" lon="16.897495">
        <ele>143.704188</ele>
        <time>2026-05-06T11:03:28.145Z</time>
      </trkpt>
      <trkpt lat="48.162386" lon="16.896961">
        <ele>143.053446</ele>
        <time>2026-05-06T11:03:45.632Z</time>
      </trkpt>
      <trkpt lat="48.162434" lon="16.896928">
        <ele>143.014851</ele>
        <time>2026-05-06T11:03:46.673Z</time>
      </trkpt>
      <trkpt lat="48.162846" lon="16.896655">
        <ele>142.685627</ele>
        <time>2026-05-06T11:03:55.541Z</time>
      </trkpt>
      <trkpt lat="48.165063" lon="16.895300">
        <ele>141.532217</ele>
        <time>2026-05-06T11:04:44.737Z</time>
      </trkpt>
      <trkpt lat="48.166134" lon="16.894685">
        <ele>141.238874</ele>
        <time>2026-05-06T11:05:09.492Z</time>
      </trkpt>
      <trkpt lat="48.168017" lon="16.893679">
        <ele>140.987328</ele>
        <time>2026-05-06T11:05:52.975Z</time>
      </trkpt>
      <trkpt lat="48.167097" lon="16.892425">
        <ele>140.889902</ele>
        <time>2026-05-06T11:06:21.265Z</time>
      </trkpt>
      <trkpt lat="48.165195" lon="16.886992">
        <ele>141.077444</ele>
        <time>2026-05-06T11:07:57.230Z</time>
      </trkpt>
      <trkpt lat="48.165179" lon="16.886870">
        <ele>141.078157</ele>
        <time>2026-05-06T11:07:59.114Z</time>
      </trkpt>
      <trkpt lat="48.165511" lon="16.886948">
        <ele>141.064084</ele>
        <time>2026-05-06T11:08:06.476Z</time>
      </trkpt>
      <trkpt lat="48.168484" lon="16.887198">
        <ele>140.942487</ele>
        <time>2026-05-06T11:09:11.928Z</time>
      </trkpt>
      <trkpt lat="48.169942" lon="16.887334">
        <ele>140.913508</ele>
        <time>2026-05-06T11:09:45.005Z</time>
      </trkpt>
      <trkpt lat="48.171240" lon="16.887688">
        <ele>140.820744</ele>
        <time>2026-05-06T11:10:13.406Z</time>
      </trkpt>
      <trkpt lat="48.171489" lon="16.887822">
        <ele>140.790864</ele>
        <time>2026-05-06T11:10:19.051Z</time>
      </trkpt>
      <trkpt lat="48.171532" lon="16.887872">
        <ele>140.784719</ele>
        <time>2026-05-06T11:10:20.217Z</time>
      </trkpt>
      <trkpt lat="48.172798" lon="16.890647">
        <ele>140.871502</ele>
        <time>2026-05-06T11:11:10.265Z</time>
      </trkpt>
      <trkpt lat="48.172919" lon="16.890859">
        <ele>140.892598</ele>
        <time>2026-05-06T11:11:14.741Z</time>
      </trkpt>
      <trkpt lat="48.173132" lon="16.891087">
        <ele>140.943533</ele>
        <time>2026-05-06T11:11:21.033Z</time>
      </trkpt>
      <trkpt lat="48.173397" lon="16.891216">
        <ele>141.014193</ele>
        <time>2026-05-06T11:11:27.736Z</time>
      </trkpt>
      <trkpt lat="48.173617" lon="16.891225">
        <ele>141.070009</ele>
        <time>2026-05-06T11:11:33.018Z</time>
      </trkpt>
      <trkpt lat="48.173845" lon="16.891140">
        <ele>141.129594</ele>
        <time>2026-05-06T11:11:38.621Z</time>
      </trkpt>
      <trkpt lat="48.174351" lon="16.890862">
        <ele>141.266265</ele>
        <time>2026-05-06T11:11:51.157Z</time>
      </trkpt>
      <trkpt lat="48.174853" lon="16.890639">
        <ele>141.342994</ele>
        <time>2026-05-06T11:12:02.707Z</time>
      </trkpt>
      <trkpt lat="48.177315" lon="16.889651">
        <ele>141.103934</ele>
        <time>2026-05-06T11:12:57.995Z</time>
      </trkpt>
      <trkpt lat="48.177830" lon="16.889440">
        <ele>141.081857</ele>
        <time>2026-05-06T11:13:09.982Z</time>
      </trkpt>
      <trkpt lat="48.179122" lon="16.888946">
        <ele>141.265111</ele>
        <time>2026-05-06T11:13:40.112Z</time>
      </trkpt>
      <trkpt lat="48.179350" lon="16.888911">
        <ele>141.312098</ele>
        <time>2026-05-06T11:13:45.291Z</time>
      </trkpt>
      <trkpt lat="48.179481" lon="16.888971">
        <ele>141.340179</ele>
        <time>2026-05-06T11:13:48.411Z</time>
      </trkpt>
      <trkpt lat="48.179708" lon="16.888707">
        <ele>141.399070</ele>
        <time>2026-05-06T11:13:55.153Z</time>
      </trkpt>
      <trkpt lat="48.179737" lon="16.888675">
        <ele>141.406452</ele>
        <time>2026-05-06T11:13:56.026Z</time>
      </trkpt>
      <trkpt lat="48.179796" lon="16.888616">
        <ele>141.420990</ele>
        <time>2026-05-06T11:13:57.732Z</time>
      </trkpt>
      <trkpt lat="48.179940" lon="16.888480">
        <ele>141.507747</ele>
        <time>2026-05-06T11:14:01.910Z</time>
      </trkpt>
      <trkpt lat="48.180337" lon="16.888089">
        <ele>141.852706</ele>
        <time>2026-05-06T11:14:13.734Z</time>
      </trkpt>
      <trkpt lat="48.180834" lon="16.887609">
        <ele>142.282050</ele>
        <time>2026-05-06T11:14:28.636Z</time>
      </trkpt>
      <trkpt lat="48.181225" lon="16.887235">
        <ele>142.618876</ele>
        <time>2026-05-06T11:14:40.607Z</time>
      </trkpt>
      <trkpt lat="48.181334" lon="16.887127">
        <ele>142.713759</ele>
        <time>2026-05-06T11:14:43.996Z</time>
      </trkpt>
      <trkpt lat="48.181440" lon="16.886900">
        <ele>142.831598</ele>
        <time>2026-05-06T11:14:48.847Z</time>
      </trkpt>
      <trkpt lat="48.181376" lon="16.886519">
        <ele>142.992526</ele>
        <time>2026-05-06T11:14:55.515Z</time>
      </trkpt>
      <trkpt lat="48.181438" lon="16.886091">
        <ele>143.171917</ele>
        <time>2026-05-06T11:15:02.767Z</time>
      </trkpt>
      <trkpt lat="48.181455" lon="16.886003">
        <ele>143.209443</ele>
        <time>2026-05-06T11:15:04.325Z</time>
      </trkpt>
      <trkpt lat="48.181636" lon="16.885101">
        <ele>143.595255</ele>
        <time>2026-05-06T11:15:19.596Z</time>
      </trkpt>
      <trkpt lat="48.182006" lon="16.883696">
        <ele>143.803068</ele>
        <time>2026-05-06T11:15:43.497Z</time>
      </trkpt>
      <trkpt lat="48.182066" lon="16.883403">
        <ele>143.788155</ele>
        <time>2026-05-06T11:15:48.035Z</time>
      </trkpt>
      <trkpt lat="48.182133" lon="16.882557">
        <ele>143.746703</ele>
        <time>2026-05-06T11:16:00.348Z</time>
      </trkpt>
      <trkpt lat="48.182152" lon="16.881474">
        <ele>143.544655</ele>
        <time>2026-05-06T11:16:15.107Z</time>
      </trkpt>
      <trkpt lat="48.182152" lon="16.881123">
        <ele>143.408712</ele>
        <time>2026-05-06T11:16:19.774Z</time>
      </trkpt>
      <trkpt lat="48.182139" lon="16.880465">
        <ele>143.153755</ele>
        <time>2026-05-06T11:16:28.543Z</time>
      </trkpt>
      <trkpt lat="48.182111" lon="16.880055">
        <ele>142.994131</ele>
        <time>2026-05-06T11:16:34.143Z</time>
      </trkpt>
      <trkpt lat="48.182243" lon="16.879974">
        <ele>142.911287</ele>
        <time>2026-05-06T11:16:37.054Z</time>
      </trkpt>
      <trkpt lat="48.182985" lon="16.879132">
        <ele>142.444831</ele>
        <time>2026-05-06T11:16:56.211Z</time>
      </trkpt>
      <trkpt lat="48.183930" lon="16.878054">
        <ele>141.925410</ele>
        <time>2026-05-06T11:17:20.808Z</time>
      </trkpt>
      <trkpt lat="48.184286" lon="16.877627">
        <ele>141.823003</ele>
        <time>2026-05-06T11:17:30.202Z</time>
      </trkpt>
      <trkpt lat="48.187148" lon="16.874314">
        <ele>141.443702</ele>
        <time>2026-05-06T11:18:49.441Z</time>
      </trkpt>
      <trkpt lat="48.187591" lon="16.873724">
        <ele>141.433219</ele>
        <time>2026-05-06T11:19:02.934Z</time>
      </trkpt>
      <trkpt lat="48.187694" lon="16.873639">
        <ele>141.431139</ele>
        <time>2026-05-06T11:19:05.586Z</time>
      </trkpt>
      <trkpt lat="48.187805" lon="16.873560">
        <ele>141.428966</ele>
        <time>2026-05-06T11:19:08.347Z</time>
      </trkpt>
      <trkpt lat="48.188042" lon="16.873474">
        <ele>141.424651</ele>
        <time>2026-05-06T11:19:13.772Z</time>
      </trkpt>
      <trkpt lat="48.188032" lon="16.873118">
        <ele>141.420448</ele>
        <time>2026-05-06T11:19:22.536Z</time>
      </trkpt>
      <trkpt lat="48.187950" lon="16.872719">
        <ele>141.396346</ele>
        <time>2026-05-06T11:19:32.714Z</time>
      </trkpt>
      <trkpt lat="48.187455" lon="16.870863">
        <ele>141.224706</ele>
        <time>2026-05-06T11:20:20.842Z</time>
      </trkpt>
      <trkpt lat="48.187030" lon="16.869121">
        <ele>141.364209</ele>
        <time>2026-05-06T11:21:07.593Z</time>
      </trkpt>
      <trkpt lat="48.186949" lon="16.868585">
        <ele>141.433064</ele>
        <time>2026-05-06T11:21:21.671Z</time>
      </trkpt>
      <trkpt lat="48.186943" lon="16.868010">
        <ele>141.505110</ele>
        <time>2026-05-06T11:21:36.310Z</time>
      </trkpt>
      <trkpt lat="48.186975" lon="16.867655">
        <ele>141.533974</ele>
        <time>2026-05-06T11:21:45.386Z</time>
      </trkpt>
      <trkpt lat="48.187664" lon="16.862439">
        <ele>141.697348</ele>
        <time>2026-05-06T11:23:57.136Z</time>
      </trkpt>
      <trkpt lat="48.187592" lon="16.861290">
        <ele>141.743588</ele>
        <time>2026-05-06T11:24:25.715Z</time>
      </trkpt>
      <trkpt lat="48.187633" lon="16.860764">
        <ele>141.764808</ele>
        <time>2026-05-06T11:24:38.882Z</time>
      </trkpt>
      <trkpt lat="48.188134" lon="16.858090">
        <ele>141.963414</ele>
        <time>2026-05-06T11:25:48.419Z</time>
      </trkpt>
      <trkpt lat="48.188351" lon="16.856754">
        <ele>141.999140</ele>
        <time>2026-05-06T11:26:22.911Z</time>
      </trkpt>
      <trkpt lat="48.188552" lon="16.855283">
        <ele>141.907086</ele>
        <time>2026-05-06T11:26:59.327Z</time>
      </trkpt>
      <trkpt lat="48.188847" lon="16.854054">
        <ele>141.887166</ele>
        <time>2026-05-06T11:27:31.063Z</time>
      </trkpt>
      <trkpt lat="48.189248" lon="16.852425">
        <ele>141.936092</ele>
        <time>2026-05-06T11:28:14.577Z</time>
      </trkpt>
      <trkpt lat="48.189460" lon="16.851658">
        <ele>141.975519</ele>
        <time>2026-05-06T11:28:35.636Z</time>
      </trkpt>
      <trkpt lat="48.189819" lon="16.850687">
        <ele>142.039695</ele>
        <time>2026-05-06T11:29:03.216Z</time>
      </trkpt>
      <trkpt lat="48.190088" lon="16.850119">
        <ele>142.079965</ele>
        <time>2026-05-06T11:29:20.415Z</time>
      </trkpt>
      <trkpt lat="48.190715" lon="16.848993">
        <ele>142.197249</ele>
        <time>2026-05-06T11:29:56.817Z</time>
      </trkpt>
      <trkpt lat="48.190998" lon="16.848591">
        <ele>142.248039</ele>
        <time>2026-05-06T11:30:11.386Z</time>
      </trkpt>
      <trkpt lat="48.192525" lon="16.846743">
        <ele>142.769202</ele>
        <time>2026-05-06T11:31:25.911Z</time>
      </trkpt>
      <trkpt lat="48.192897" lon="16.846221">
        <ele>142.937617</ele>
        <time>2026-05-06T11:31:46.227Z</time>
      </trkpt>
      <trkpt lat="48.193033" lon="16.845946">
        <ele>142.958054</ele>
        <time>2026-05-06T11:31:55.261Z</time>
      </trkpt>
      <trkpt lat="48.193240" lon="16.845327">
        <ele>142.999387</ele>
        <time>2026-05-06T11:32:13.240Z</time>
      </trkpt>
      <trkpt lat="48.193348" lon="16.844752">
        <ele>143.035042</ele>
        <time>2026-05-06T11:32:28.092Z</time>
      </trkpt>
      <trkpt lat="48.193366" lon="16.844021">
        <ele>143.078702</ele>
        <time>2026-05-06T11:32:45.751Z</time>
      </trkpt>
      <trkpt lat="48.193332" lon="16.843512">
        <ele>143.074021</ele>
        <time>2026-05-06T11:32:57.876Z</time>
      </trkpt>
      <trkpt lat="48.193328" lon="16.843006">
        <ele>143.010625</ele>
        <time>2026-05-06T11:33:09.834Z</time>
      </trkpt>
      <trkpt lat="48.193334" lon="16.841897">
        <ele>142.871684</ele>
        <time>2026-05-06T11:33:36.583Z</time>
      </trkpt>
      <trkpt lat="48.193312" lon="16.841447">
        <ele>142.815156</ele>
        <time>2026-05-06T11:33:47.793Z</time>
      </trkpt>
      <trkpt lat="48.193064" lon="16.840082">
        <ele>142.700598</ele>
        <time>2026-05-06T11:34:22.355Z</time>
      </trkpt>
      <trkpt lat="48.192981" lon="16.839344">
        <ele>142.655039</ele>
        <time>2026-05-06T11:34:40.421Z</time>
      </trkpt>
      <trkpt lat="48.192997" lon="16.838830">
        <ele>142.623716</ele>
        <time>2026-05-06T11:34:52.844Z</time>
      </trkpt>
      <trkpt lat="48.194038" lon="16.832848">
        <ele>143.147019</ele>
        <time>2026-05-06T11:37:28.523Z</time>
      </trkpt>
      <trkpt lat="48.194173" lon="16.832165">
        <ele>143.111897</ele>
        <time>2026-05-06T11:37:46.525Z</time>
      </trkpt>
      <trkpt lat="48.194648" lon="16.829886">
        <ele>142.982925</ele>
        <time>2026-05-06T11:38:44.074Z</time>
      </trkpt>
      <trkpt lat="48.195183" lon="16.828134">
        <ele>142.858069</ele>
        <time>2026-05-06T11:39:31.210Z</time>
      </trkpt>
      <trkpt lat="48.195924" lon="16.825581">
        <ele>143.112593</ele>
        <time>2026-05-06T11:40:40.994Z</time>
      </trkpt>
      <trkpt lat="48.196085" lon="16.825085">
        <ele>143.182977</ele>
        <time>2026-05-06T11:40:54.947Z</time>
      </trkpt>
      <trkpt lat="48.196544" lon="16.823887">
        <ele>143.359268</ele>
        <time>2026-05-06T11:41:29.727Z</time>
      </trkpt>
      <trkpt lat="48.196596" lon="16.823541">
        <ele>143.404519</ele>
        <time>2026-05-06T11:41:38.728Z</time>
      </trkpt>
      <trkpt lat="48.196657" lon="16.823215">
        <ele>143.447717</ele>
        <time>2026-05-06T11:41:47.351Z</time>
      </trkpt>
      <trkpt lat="48.196855" lon="16.822604">
        <ele>143.541704</ele>
        <time>2026-05-06T11:42:04.639Z</time>
      </trkpt>
      <trkpt lat="48.197063" lon="16.821702">
        <ele>143.674222</ele>
        <time>2026-05-06T11:42:28.786Z</time>
      </trkpt>
      <trkpt lat="48.197193" lon="16.821504">
        <ele>143.712809</ele>
        <time>2026-05-06T11:42:35.843Z</time>
      </trkpt>
      <trkpt lat="48.197301" lon="16.821160">
        <ele>143.765603</ele>
        <time>2026-05-06T11:42:45.505Z</time>
      </trkpt>
      <trkpt lat="48.197502" lon="16.819893">
        <ele>143.849893</ele>
        <time>2026-05-06T11:43:18.086Z</time>
      </trkpt>
      <trkpt lat="48.197754" lon="16.818606">
        <ele>143.886574</ele>
        <time>2026-05-06T11:43:51.093Z</time>
      </trkpt>
      <trkpt lat="48.198050" lon="16.817413">
        <ele>143.900006</ele>
        <time>2026-05-06T11:44:22.599Z</time>
      </trkpt>
      <trkpt lat="48.198201" lon="16.816920">
        <ele>143.900006</ele>
        <time>2026-05-06T11:44:36.078Z</time>
      </trkpt>
      <trkpt lat="48.198472" lon="16.816255">
        <ele>143.900006</ele>
        <time>2026-05-06T11:44:55.440Z</time>
      </trkpt>
      <trkpt lat="48.199395" lon="16.814396">
        <ele>143.858797</ele>
        <time>2026-05-06T11:45:52.646Z</time>
      </trkpt>
      <trkpt lat="48.199795" lon="16.813396">
        <ele>143.831291</ele>
        <time>2026-05-06T11:46:21.101Z</time>
      </trkpt>
      <trkpt lat="48.200215" lon="16.812415">
        <ele>143.805734</ele>
        <time>2026-05-06T11:46:49.577Z</time>
      </trkpt>
      <trkpt lat="48.200427" lon="16.811584">
        <ele>143.786230</ele>
        <time>2026-05-06T11:47:11.468Z</time>
      </trkpt>
      <trkpt lat="48.200751" lon="16.810811">
        <ele>143.801202</ele>
        <time>2026-05-06T11:47:34.161Z</time>
      </trkpt>
      <trkpt lat="48.201249" lon="16.809510">
        <ele>143.882035</ele>
        <time>2026-05-06T11:48:11.601Z</time>
      </trkpt>
      <trkpt lat="48.202196" lon="16.806801">
        <ele>144.055510</ele>
        <time>2026-05-06T11:49:27.685Z</time>
      </trkpt>
      <trkpt lat="48.202409" lon="16.806258">
        <ele>144.118480</ele>
        <time>2026-05-06T11:49:43.695Z</time>
      </trkpt>
      <trkpt lat="48.202471" lon="16.806103">
        <ele>144.147897</ele>
        <time>2026-05-06T11:49:48.311Z</time>
      </trkpt>
      <trkpt lat="48.202589" lon="16.805616">
        <ele>144.232219</ele>
        <time>2026-05-06T11:50:01.573Z</time>
      </trkpt>
      <trkpt lat="48.203128" lon="16.803967">
        <ele>144.517591</ele>
        <time>2026-05-06T11:50:48.205Z</time>
      </trkpt>
      <trkpt lat="48.203195" lon="16.803604">
        <ele>144.522820</ele>
        <time>2026-05-06T11:50:57.623Z</time>
      </trkpt>
      <trkpt lat="48.203266" lon="16.803060">
        <ele>144.530515</ele>
        <time>2026-05-06T11:51:11.437Z</time>
      </trkpt>
      <trkpt lat="48.203301" lon="16.802579">
        <ele>144.537232</ele>
        <time>2026-05-06T11:51:23.391Z</time>
      </trkpt>
      <trkpt lat="48.203277" lon="16.801689">
        <ele>144.549597</ele>
        <time>2026-05-06T11:51:45.239Z</time>
      </trkpt>
      <trkpt lat="48.203333" lon="16.800884">
        <ele>144.519156</ele>
        <time>2026-05-06T11:52:05.031Z</time>
      </trkpt>
      <trkpt lat="48.203372" lon="16.800565">
        <ele>144.496996</ele>
        <time>2026-05-06T11:52:12.979Z</time>
      </trkpt>
      <trkpt lat="48.203540" lon="16.799919">
        <ele>144.449615</ele>
        <time>2026-05-06T11:52:29.918Z</time>
      </trkpt>
      <trkpt lat="48.203506" lon="16.799234">
        <ele>144.402681</ele>
        <time>2026-05-06T11:52:46.687Z</time>
      </trkpt>
      <trkpt lat="48.204161" lon="16.793042">
        <ele>143.913073</ele>
        <time>2026-05-06T11:55:19.458Z</time>
      </trkpt>
      <trkpt lat="48.203280" lon="16.792840">
        <ele>143.848839</ele>
        <time>2026-05-06T11:55:52.250Z</time>
      </trkpt>
      <trkpt lat="48.199203" lon="16.791908">
        <ele>143.852966</ele>
        <time>2026-05-06T11:58:24.996Z</time>
      </trkpt>
      <trkpt lat="48.195156" lon="16.790975">
        <ele>144.568784</ele>
        <time>2026-05-06T12:01:00.048Z</time>
      </trkpt>
      <trkpt lat="48.195099" lon="16.791013">
        <ele>144.577485</ele>
        <time>2026-05-06T12:01:02.386Z</time>
      </trkpt>
      <trkpt lat="48.194345" lon="16.789460">
        <ele>144.756141</ele>
        <time>2026-05-06T12:01:31.144Z</time>
      </trkpt>
      <trkpt lat="48.194066" lon="16.788536">
        <ele>145.040357</ele>
        <time>2026-05-06T12:01:47.182Z</time>
      </trkpt>
      <trkpt lat="48.193915" lon="16.788235">
        <ele>145.155692</ele>
        <time>2026-05-06T12:01:53.209Z</time>
      </trkpt>
      <trkpt lat="48.193800" lon="16.788086">
        <ele>145.225483</ele>
        <time>2026-05-06T12:01:56.859Z</time>
      </trkpt>
      <trkpt lat="48.192826" lon="16.787380">
        <ele>145.694040</ele>
        <time>2026-05-06T12:02:23.675Z</time>
      </trkpt>
      <trkpt lat="48.192846" lon="16.787296">
        <ele>145.715345</ele>
        <time>2026-05-06T12:02:25.115Z</time>
      </trkpt>
      <trkpt lat="48.192827" lon="16.787211">
        <ele>145.736758</ele>
        <time>2026-05-06T12:02:26.521Z</time>
      </trkpt>
      <trkpt lat="48.192873" lon="16.787136">
        <ele>145.761101</ele>
        <time>2026-05-06T12:02:28.161Z</time>
      </trkpt>
      <trkpt lat="48.193348" lon="16.785685">
        <ele>146.147210</ele>
        <time>2026-05-06T12:02:53.410Z</time>
      </trkpt>
      <trkpt lat="48.193430" lon="16.785442">
        <ele>146.212264</ele>
        <time>2026-05-06T12:02:57.579Z</time>
      </trkpt>
      <trkpt lat="48.193579" lon="16.784978">
        <ele>146.233071</ele>
        <time>2026-05-06T12:03:05.520Z</time>
      </trkpt>
      <trkpt lat="48.193660" lon="16.784508">
        <ele>146.226967</ele>
        <time>2026-05-06T12:03:12.942Z</time>
      </trkpt>
      <trkpt lat="48.193698" lon="16.784102">
        <ele>146.221812</ele>
        <time>2026-05-06T12:03:19.079Z</time>
      </trkpt>
      <trkpt lat="48.193734" lon="16.783222">
        <ele>146.210726</ele>
        <time>2026-05-06T12:03:32.141Z</time>
      </trkpt>
      <trkpt lat="48.193742" lon="16.782726">
        <ele>146.204487</ele>
        <time>2026-05-06T12:03:39.193Z</time>
      </trkpt>
      <trkpt lat="48.193838" lon="16.781703">
        <ele>145.816356</ele>
        <time>2026-05-06T12:03:53.193Z</time>
      </trkpt>
      <trkpt lat="48.193876" lon="16.781491">
        <ele>145.732431</ele>
        <time>2026-05-06T12:03:56.079Z</time>
      </trkpt>
      <trkpt lat="48.193908" lon="16.781322">
        <ele>145.665268</ele>
        <time>2026-05-06T12:03:58.380Z</time>
      </trkpt>
      <trkpt lat="48.194118" lon="16.780706">
        <ele>145.400768</ele>
        <time>2026-05-06T12:04:07.566Z</time>
      </trkpt>
      <trkpt lat="48.194476" lon="16.779954">
        <ele>145.133746</ele>
        <time>2026-05-06T12:04:20.128Z</time>
      </trkpt>
      <trkpt lat="48.194743" lon="16.779259">
        <ele>145.038239</ele>
        <time>2026-05-06T12:04:31.641Z</time>
      </trkpt>
      <trkpt lat="48.195158" lon="16.777938">
        <ele>144.864366</ele>
        <time>2026-05-06T12:04:53.344Z</time>
      </trkpt>
      <trkpt lat="48.195527" lon="16.776413">
        <ele>144.654874</ele>
        <time>2026-05-06T12:05:16.601Z</time>
      </trkpt>
      <trkpt lat="48.195935" lon="16.775068">
        <ele>144.500763</ele>
        <time>2026-05-06T12:05:37.544Z</time>
      </trkpt>
      <trkpt lat="48.196382" lon="16.773607">
        <ele>144.498702</ele>
        <time>2026-05-06T12:06:01.142Z</time>
      </trkpt>
      <trkpt lat="48.198344" lon="16.767266">
        <ele>145.146454</ele>
        <time>2026-05-06T12:07:48.125Z</time>
      </trkpt>
      <trkpt lat="48.199505" lon="16.763734">
        <ele>145.285654</ele>
        <time>2026-05-06T12:08:46.914Z</time>
      </trkpt>
      <trkpt lat="48.199781" lon="16.762758">
        <ele>145.310344</ele>
        <time>2026-05-06T12:09:02.631Z</time>
      </trkpt>
      <trkpt lat="48.199985" lon="16.761883">
        <ele>145.339539</ele>
        <time>2026-05-06T12:09:16.411Z</time>
      </trkpt>
      <trkpt lat="48.200159" lon="16.760942">
        <ele>145.370295</ele>
        <time>2026-05-06T12:09:31.060Z</time>
      </trkpt>
      <trkpt lat="48.200288" lon="16.759851">
        <ele>145.364192</ele>
        <time>2026-05-06T12:09:47.549Z</time>
      </trkpt>
      <trkpt lat="48.200333" lon="16.759213">
        <ele>145.347432</ele>
        <time>2026-05-06T12:09:56.985Z</time>
      </trkpt>
      <trkpt lat="48.200366" lon="16.758215">
        <ele>145.321329</ele>
        <time>2026-05-06T12:10:11.662Z</time>
      </trkpt>
      <trkpt lat="48.200364" lon="16.757357">
        <ele>145.296907</ele>
        <time>2026-05-06T12:10:24.216Z</time>
      </trkpt>
      <trkpt lat="48.200249" lon="16.755327">
        <ele>145.235691</ele>
        <time>2026-05-06T12:10:53.883Z</time>
      </trkpt>
      <trkpt lat="48.200124" lon="16.753036">
        <ele>145.474977</ele>
        <time>2026-05-06T12:11:28.585Z</time>
      </trkpt>
      <trkpt lat="48.200085" lon="16.750833">
        <ele>146.083969</ele>
        <time>2026-05-06T12:12:04.376Z</time>
      </trkpt>
      <trkpt lat="48.200082" lon="16.750561">
        <ele>146.173855</ele>
        <time>2026-05-06T12:12:08.892Z</time>
      </trkpt>
      <trkpt lat="48.200067" lon="16.749148">
        <ele>146.683947</ele>
        <time>2026-05-06T12:12:31.456Z</time>
      </trkpt>
      <trkpt lat="48.200105" lon="16.748262">
        <ele>147.037045</ele>
        <time>2026-05-06T12:12:46.021Z</time>
      </trkpt>
      <trkpt lat="48.200176" lon="16.747585">
        <ele>147.309607</ele>
        <time>2026-05-06T12:12:57.609Z</time>
      </trkpt>
      <trkpt lat="48.200252" lon="16.747017">
        <ele>147.500956</ele>
        <time>2026-05-06T12:13:07.212Z</time>
      </trkpt>
      <trkpt lat="48.200259" lon="16.746797">
        <ele>147.498250</ele>
        <time>2026-05-06T12:13:10.821Z</time>
      </trkpt>
      <trkpt lat="48.200241" lon="16.746709">
        <ele>147.497119</ele>
        <time>2026-05-06T12:13:12.302Z</time>
      </trkpt>
      <trkpt lat="48.200111" lon="16.746066">
        <ele>147.488865</ele>
        <time>2026-05-06T12:13:23.107Z</time>
      </trkpt>
      <trkpt lat="48.200052" lon="16.745742">
        <ele>147.484738</ele>
        <time>2026-05-06T12:13:28.367Z</time>
      </trkpt>
      <trkpt lat="48.200056" lon="16.745307">
        <ele>147.479394</ele>
        <time>2026-05-06T12:13:34.673Z</time>
      </trkpt>
      <trkpt lat="48.199985" lon="16.744041">
        <ele>147.327870</ele>
        <time>2026-05-06T12:13:51.489Z</time>
      </trkpt>
      <trkpt lat="48.199974" lon="16.743904">
        <ele>147.281769</ele>
        <time>2026-05-06T12:13:53.268Z</time>
      </trkpt>
      <trkpt lat="48.199917" lon="16.743168">
        <ele>147.034229</ele>
        <time>2026-05-06T12:14:03.041Z</time>
      </trkpt>
      <trkpt lat="48.199883" lon="16.742347">
        <ele>146.759417</ele>
        <time>2026-05-06T12:14:14.264Z</time>
      </trkpt>
      <trkpt lat="48.199954" lon="16.739799">
        <ele>146.584233</ele>
        <time>2026-05-06T12:14:52.148Z</time>
      </trkpt>
      <trkpt lat="48.199995" lon="16.739302">
        <ele>146.588487</ele>
        <time>2026-05-06T12:14:59.721Z</time>
      </trkpt>
      <trkpt lat="48.200144" lon="16.738621">
        <ele>146.567165</ele>
        <time>2026-05-06T12:15:10.491Z</time>
      </trkpt>
      <trkpt lat="48.207663" lon="16.742635">
        <ele>145.966939</ele>
        <time>2026-05-06T12:20:03.851Z</time>
      </trkpt>
      <trkpt lat="48.208030" lon="16.742732">
        <ele>145.927880</ele>
        <time>2026-05-06T12:20:17.355Z</time>
      </trkpt>
      <trkpt lat="48.208359" lon="16.742763">
        <ele>145.895939</ele>
        <time>2026-05-06T12:20:29.382Z</time>
      </trkpt>
      <trkpt lat="48.209010" lon="16.742853">
        <ele>145.914791</ele>
        <time>2026-05-06T12:20:53.428Z</time>
      </trkpt>
      <trkpt lat="48.209521" lon="16.742998">
        <ele>145.929788</ele>
        <time>2026-05-06T12:21:12.918Z</time>
      </trkpt>
      <trkpt lat="48.210662" lon="16.743426">
        <ele>145.975666</ele>
        <time>2026-05-06T12:21:57.137Z</time>
      </trkpt>
      <trkpt lat="48.213609" lon="16.745774">
        <ele>146.074087</ele>
        <time>2026-05-06T12:24:01.015Z</time>
      </trkpt>
      <trkpt lat="48.214008" lon="16.746092">
        <ele>146.054744</ele>
        <time>2026-05-06T12:24:17.662Z</time>
      </trkpt>
      <trkpt lat="48.216051" lon="16.747719">
        <ele>146.043980</ele>
        <time>2026-05-06T12:25:42.749Z</time>
      </trkpt>
      <trkpt lat="48.217995" lon="16.749216">
        <ele>146.487143</ele>
        <time>2026-05-06T12:27:06.079Z</time>
      </trkpt>
      <trkpt lat="48.218021" lon="16.749236">
        <ele>146.494690</ele>
        <time>2026-05-06T12:27:07.223Z</time>
      </trkpt>
      <trkpt lat="48.218081" lon="16.749279">
        <ele>146.511864</ele>
        <time>2026-05-06T12:27:09.808Z</time>
      </trkpt>
      <trkpt lat="48.218210" lon="16.749380">
        <ele>146.538586</ele>
        <time>2026-05-06T12:27:15.365Z</time>
      </trkpt>
      <trkpt lat="48.218260" lon="16.749419">
        <ele>146.547311</ele>
        <time>2026-05-06T12:27:17.535Z</time>
      </trkpt>
      <trkpt lat="48.219324" lon="16.746113">
        <ele>146.904868</ele>
        <time>2026-05-06T12:28:49.465Z</time>
      </trkpt>
      <trkpt lat="48.219957" lon="16.744246">
        <ele>147.049780</ele>
        <time>2026-05-06T12:29:41.994Z</time>
      </trkpt>
      <trkpt lat="48.220135" lon="16.743761">
        <ele>147.065816</ele>
        <time>2026-05-06T12:29:55.737Z</time>
      </trkpt>
      <trkpt lat="48.220306" lon="16.743440">
        <ele>147.077719</ele>
        <time>2026-05-06T12:30:05.891Z</time>
      </trkpt>
      <trkpt lat="48.221116" lon="16.742082">
        <ele>147.181248</ele>
        <time>2026-05-06T12:30:50.815Z</time>
      </trkpt>
      <trkpt lat="48.221360" lon="16.741410">
        <ele>147.259111</ele>
        <time>2026-05-06T12:31:10.016Z</time>
      </trkpt>
      <trkpt lat="48.221603" lon="16.740405">
        <ele>147.367884</ele>
        <time>2026-05-06T12:31:37.120Z</time>
      </trkpt>
      <trkpt lat="48.221736" lon="16.739470">
        <ele>147.368069</ele>
        <time>2026-05-06T12:32:01.143Z</time>
      </trkpt>
      <trkpt lat="48.221722" lon="16.736154">
        <ele>147.274043</ele>
        <time>2026-05-06T12:33:22.010Z</time>
      </trkpt>
      <trkpt lat="48.221856" lon="16.734632">
        <ele>147.238410</ele>
        <time>2026-05-06T12:34:00.123Z</time>
      </trkpt>
      <trkpt lat="48.222006" lon="16.733797">
        <ele>147.286186</ele>
        <time>2026-05-06T12:34:21.745Z</time>
      </trkpt>
      <trkpt lat="48.222214" lon="16.733255">
        <ele>147.320741</ele>
        <time>2026-05-06T12:34:37.301Z</time>
      </trkpt>
      <trkpt lat="48.223033" lon="16.732219">
        <ele>147.448432</ele>
        <time>2026-05-06T12:35:17.362Z</time>
      </trkpt>
      <trkpt lat="48.223582" lon="16.731596">
        <ele>147.568419</ele>
        <time>2026-05-06T12:35:43.407Z</time>
      </trkpt>
      <trkpt lat="48.223737" lon="16.731310">
        <ele>147.611241</ele>
        <time>2026-05-06T12:35:52.782Z</time>
      </trkpt>
      <trkpt lat="48.224124" lon="16.730010">
        <ele>147.693741</ele>
        <time>2026-05-06T12:36:28.529Z</time>
      </trkpt>
      <trkpt lat="48.224336" lon="16.728656">
        <ele>147.704447</ele>
        <time>2026-05-06T12:37:02.703Z</time>
      </trkpt>
      <trkpt lat="48.224489" lon="16.727991">
        <ele>147.724855</ele>
        <time>2026-05-06T12:37:19.856Z</time>
      </trkpt>
      <trkpt lat="48.224812" lon="16.726793">
        <ele>147.856775</ele>
        <time>2026-05-06T12:37:52.005Z</time>
      </trkpt>
      <trkpt lat="48.225780" lon="16.724589">
        <ele>147.993713</ele>
        <time>2026-05-06T12:38:59.340Z</time>
      </trkpt>
      <trkpt lat="48.225971" lon="16.723913">
        <ele>147.998722</ele>
        <time>2026-05-06T12:39:17.300Z</time>
      </trkpt>
      <trkpt lat="48.226132" lon="16.723090">
        <ele>147.899940</ele>
        <time>2026-05-06T12:39:37.453Z</time>
      </trkpt>
      <trkpt lat="48.226233" lon="16.722065">
        <ele>147.524533</ele>
        <time>2026-05-06T12:40:01.357Z</time>
      </trkpt>
      <trkpt lat="48.226281" lon="16.721893">
        <ele>147.456969</ele>
        <time>2026-05-06T12:40:05.655Z</time>
      </trkpt>
      <trkpt lat="48.226419" lon="16.721658">
        <ele>147.343471</ele>
        <time>2026-05-06T12:40:12.901Z</time>
      </trkpt>
      <trkpt lat="48.226454" lon="16.721531">
        <ele>147.293676</ele>
        <time>2026-05-06T12:40:16.091Z</time>
      </trkpt>
      <trkpt lat="48.226435" lon="16.720946">
        <ele>147.081475</ele>
        <time>2026-05-06T12:40:29.781Z</time>
      </trkpt>
      <trkpt lat="48.226484" lon="16.720598">
        <ele>147.001733</ele>
        <time>2026-05-06T12:40:38.259Z</time>
      </trkpt>
      <trkpt lat="48.226436" lon="16.720222">
        <ele>146.957877</ele>
        <time>2026-05-06T12:40:47.700Z</time>
      </trkpt>
      <trkpt lat="48.226470" lon="16.719640">
        <ele>146.890952</ele>
        <time>2026-05-06T12:41:01.877Z</time>
      </trkpt>
      <trkpt lat="48.226439" lon="16.718939">
        <ele>146.810474</ele>
        <time>2026-05-06T12:41:18.935Z</time>
      </trkpt>
      <trkpt lat="48.226464" lon="16.718794">
        <ele>146.793317</ele>
        <time>2026-05-06T12:41:22.619Z</time>
      </trkpt>
      <trkpt lat="48.226560" lon="16.718621">
        <ele>146.767525</ele>
        <time>2026-05-06T12:41:28.121Z</time>
      </trkpt>
      <trkpt lat="48.226488" lon="16.718282">
        <ele>146.726766</ele>
        <time>2026-05-06T12:41:33.288Z</time>
      </trkpt>
      <trkpt lat="48.226475" lon="16.718205">
        <ele>146.717666</ele>
        <time>2026-05-06T12:41:34.512Z</time>
      </trkpt>
      <trkpt lat="48.226874" lon="16.717485">
        <ele>146.887786</ele>
        <time>2026-05-06T12:41:48.565Z</time>
      </trkpt>
      <trkpt lat="48.230564" lon="16.711384">
        <ele>148.580518</ele>
        <time>2026-05-06T12:43:58.207Z</time>
      </trkpt>
      <trkpt lat="48.232199" lon="16.708906">
        <ele>149.203110</ele>
        <time>2026-05-06T12:44:52.717Z</time>
      </trkpt>
      <trkpt lat="48.232617" lon="16.708321">
        <ele>149.330074</ele>
        <time>2026-05-06T12:45:05.460Z</time>
      </trkpt>
      <trkpt lat="48.232665" lon="16.708253">
        <ele>149.327886</ele>
        <time>2026-05-06T12:45:06.914Z</time>
      </trkpt>
      <trkpt lat="48.233708" lon="16.706759">
        <ele>149.280091</ele>
        <time>2026-05-06T12:45:59.845Z</time>
      </trkpt>
      <trkpt lat="48.234202" lon="16.705882">
        <ele>149.347787</ele>
        <time>2026-05-06T12:46:28.517Z</time>
      </trkpt>
      <trkpt lat="48.234697" lon="16.704770">
        <ele>149.493008</ele>
        <time>2026-05-06T12:47:02.334Z</time>
      </trkpt>
      <trkpt lat="48.235278" lon="16.703061">
        <ele>149.661264</ele>
        <time>2026-05-06T12:47:50.298Z</time>
      </trkpt>
      <trkpt lat="48.236450" lon="16.699462">
        <ele>149.953662</ele>
        <time>2026-05-06T12:49:30.123Z</time>
      </trkpt>
      <trkpt lat="48.236374" lon="16.699371">
        <ele>149.964293</ele>
        <time>2026-05-06T12:49:32.382Z</time>
      </trkpt>
      <trkpt lat="48.236109" lon="16.699035">
        <ele>150.009286</ele>
        <time>2026-05-06T12:49:40.483Z</time>
      </trkpt>
      <trkpt lat="48.235968" lon="16.698828">
        <ele>150.034866</ele>
        <time>2026-05-06T12:49:45.133Z</time>
      </trkpt>
      <trkpt lat="48.235571" lon="16.698301">
        <ele>150.103605</ele>
        <time>2026-05-06T12:49:57.779Z</time>
      </trkpt>
      <trkpt lat="48.235335" lon="16.698052">
        <ele>150.141021</ele>
        <time>2026-05-06T12:50:04.420Z</time>
      </trkpt>
      <trkpt lat="48.235034" lon="16.697867">
        <ele>150.183210</ele>
        <time>2026-05-06T12:50:11.607Z</time>
      </trkpt>
      <trkpt lat="48.234692" lon="16.697784">
        <ele>150.110282</ele>
        <time>2026-05-06T12:50:18.906Z</time>
      </trkpt>
      <trkpt lat="48.234833" lon="16.696505">
        <ele>149.812523</ele>
        <time>2026-05-06T12:50:38.665Z</time>
      </trkpt>
      <trkpt lat="48.233344" lon="16.696119">
        <ele>149.653545</ele>
        <time>2026-05-06T12:51:14.386Z</time>
      </trkpt>
      <trkpt lat="48.232543" lon="16.695929">
        <ele>149.730119</ele>
        <time>2026-05-06T12:51:33.806Z</time>
      </trkpt>
      <trkpt lat="48.231511" lon="16.695653">
        <ele>149.944410</ele>
        <time>2026-05-06T12:51:58.709Z</time>
      </trkpt>
      <trkpt lat="48.231127" lon="16.695548">
        <ele>150.032132</ele>
        <time>2026-05-06T12:52:07.805Z</time>
      </trkpt>
      <trkpt lat="48.230981" lon="16.695512">
        <ele>150.065384</ele>
        <time>2026-05-06T12:52:11.189Z</time>
      </trkpt>
      <trkpt lat="48.230937" lon="16.695501">
        <ele>150.075409</ele>
        <time>2026-05-06T12:52:12.232Z</time>
      </trkpt>
      <trkpt lat="48.229902" lon="16.695457">
        <ele>150.043409</ele>
        <time>2026-05-06T12:52:34.708Z</time>
      </trkpt>
      <trkpt lat="48.229906" lon="16.695300">
        <ele>150.027604</ele>
        <time>2026-05-06T12:52:38.569Z</time>
      </trkpt>
      <trkpt lat="48.229704" lon="16.694754">
        <ele>149.964780</ele>
        <time>2026-05-06T12:52:53.847Z</time>
      </trkpt>
      <trkpt lat="48.229490" lon="16.694326">
        <ele>149.910948</ele>
        <time>2026-05-06T12:53:06.830Z</time>
      </trkpt>
      <trkpt lat="48.229425" lon="16.694226">
        <ele>149.896894</ele>
        <time>2026-05-06T12:53:10.212Z</time>
      </trkpt>
      <trkpt lat="48.229341" lon="16.694159">
        <ele>149.882530</ele>
        <time>2026-05-06T12:53:13.663Z</time>
      </trkpt>
      <trkpt lat="48.227964" lon="16.694039">
        <ele>149.486461</ele>
        <time>2026-05-06T12:54:03.226Z</time>
      </trkpt>
      <trkpt lat="48.227860" lon="16.693901">
        <ele>149.446200</ele>
        <time>2026-05-06T12:54:08.215Z</time>
      </trkpt>
      <trkpt lat="48.227826" lon="16.693678">
        <ele>149.401998</ele>
        <time>2026-05-06T12:54:13.700Z</time>
      </trkpt>
      <trkpt lat="48.227824" lon="16.693579">
        <ele>149.382860</ele>
        <time>2026-05-06T12:54:16.075Z</time>
      </trkpt>
      <trkpt lat="48.227821" lon="16.693478">
        <ele>149.363325</ele>
        <time>2026-05-06T12:54:18.485Z</time>
      </trkpt>
      <trkpt lat="48.227495" lon="16.692096">
        <ele>149.079692</ele>
        <time>2026-05-06T12:54:38.998Z</time>
      </trkpt>
      <trkpt lat="48.228227" lon="16.690922">
        <ele>148.814280</ele>
        <time>2026-05-06T12:55:04.417Z</time>
      </trkpt>
      <trkpt lat="48.228828" lon="16.690141">
        <ele>148.744360</ele>
        <time>2026-05-06T12:55:23.446Z</time>
      </trkpt>
      <trkpt lat="48.229709" lon="16.688964">
        <ele>148.741820</ele>
        <time>2026-05-06T12:56:07.661Z</time>
      </trkpt>
      <trkpt lat="48.230085" lon="16.688520">
        <ele>148.820383</ele>
        <time>2026-05-06T12:56:25.858Z</time>
      </trkpt>
      <trkpt lat="48.231357" lon="16.687107">
        <ele>149.018734</ele>
        <time>2026-05-06T12:57:25.462Z</time>
      </trkpt>
      <trkpt lat="48.232163" lon="16.686286">
        <ele>149.088378</ele>
        <time>2026-05-06T12:58:01.606Z</time>
      </trkpt>
      <trkpt lat="48.232951" lon="16.685409">
        <ele>149.060063</ele>
        <time>2026-05-06T12:58:37.821Z</time>
      </trkpt>
      <trkpt lat="48.238588" lon="16.679237">
        <ele>148.773758</ele>
        <time>2026-05-06T13:02:54.925Z</time>
      </trkpt>
      <trkpt lat="48.241288" lon="16.676273">
        <ele>149.149219</ele>
        <time>2026-05-06T13:05:00.810Z</time>
      </trkpt>
      <trkpt lat="48.243777" lon="16.673572">
        <ele>149.930512</ele>
        <time>2026-05-06T13:06:57.782Z</time>
      </trkpt>
      <trkpt lat="48.243764" lon="16.673384">
        <ele>149.965670</ele>
        <time>2026-05-06T13:07:00.766Z</time>
      </trkpt>
      <trkpt lat="48.243798" lon="16.673238">
        <ele>149.990014</ele>
        <time>2026-05-06T13:07:03.198Z</time>
      </trkpt>
      <trkpt lat="48.243834" lon="16.672646">
        <ele>150.066823</ele>
        <time>2026-05-06T13:07:12.463Z</time>
      </trkpt>
      <trkpt lat="48.243863" lon="16.672643">
        <ele>150.072463</ele>
        <time>2026-05-06T13:07:13.137Z</time>
      </trkpt>
      <trkpt lat="48.243984" lon="16.672633">
        <ele>150.095975</ele>
        <time>2026-05-06T13:07:15.948Z</time>
      </trkpt>
      <trkpt lat="48.244009" lon="16.672633">
        <ele>150.100825</ele>
        <time>2026-05-06T13:07:16.549Z</time>
      </trkpt>
      <trkpt lat="48.244118" lon="16.673229">
        <ele>150.180684</ele>
        <time>2026-05-06T13:07:26.080Z</time>
      </trkpt>
      <trkpt lat="48.244174" lon="16.673305">
        <ele>150.195329</ele>
        <time>2026-05-06T13:07:27.855Z</time>
      </trkpt>
      <trkpt lat="48.244287" lon="16.673291">
        <ele>150.217328</ele>
        <time>2026-05-06T13:07:30.484Z</time>
      </trkpt>
      <trkpt lat="48.248283" lon="16.672792">
        <ele>150.419669</ele>
        <time>2026-05-06T13:09:10.149Z</time>
      </trkpt>
      <trkpt lat="48.248174" lon="16.672149">
        <ele>150.343905</ele>
        <time>2026-05-06T13:09:20.879Z</time>
      </trkpt>
      <trkpt lat="48.247904" lon="16.670979">
        <ele>150.119790</ele>
        <time>2026-05-06T13:09:40.319Z</time>
      </trkpt>
      <trkpt lat="48.247613" lon="16.670028">
        <ele>149.930742</ele>
        <time>2026-05-06T13:09:56.467Z</time>
      </trkpt>
      <trkpt lat="48.247278" lon="16.669207">
        <ele>149.873181</ele>
        <time>2026-05-06T13:10:11.654Z</time>
      </trkpt>
      <trkpt lat="48.246493" lon="16.668068">
        <ele>149.775187</ele>
        <time>2026-05-06T13:10:38.843Z</time>
      </trkpt>
      <trkpt lat="48.245713" lon="16.666874">
        <ele>149.946671</ele>
        <time>2026-05-06T13:11:07.373Z</time>
      </trkpt>
      <trkpt lat="48.245473" lon="16.666074">
        <ele>150.045285</ele>
        <time>2026-05-06T13:11:22.236Z</time>
      </trkpt>
      <trkpt lat="48.245282" lon="16.665268">
        <ele>150.020232</ele>
        <time>2026-05-06T13:11:36.479Z</time>
      </trkpt>
      <trkpt lat="48.245242" lon="16.665017">
        <ele>149.997856</ele>
        <time>2026-05-06T13:11:40.707Z</time>
      </trkpt>
      <trkpt lat="48.245216" lon="16.664692">
        <ele>149.969476</ele>
        <time>2026-05-06T13:11:46.033Z</time>
      </trkpt>
      <trkpt lat="48.245235" lon="16.664018">
        <ele>149.910988</ele>
        <time>2026-05-06T13:11:56.817Z</time>
      </trkpt>
      <trkpt lat="48.245300" lon="16.663518">
        <ele>149.866820</ele>
        <time>2026-05-06T13:12:04.809Z</time>
      </trkpt>
      <trkpt lat="48.245431" lon="16.663044">
        <ele>149.827797</ele>
        <time>2026-05-06T13:12:12.843Z</time>
      </trkpt>
      <trkpt lat="48.245949" lon="16.662250">
        <ele>149.763339</ele>
        <time>2026-05-06T13:12:30.449Z</time>
      </trkpt>
      <trkpt lat="48.246766" lon="16.661074">
        <ele>149.699055</ele>
        <time>2026-05-06T13:12:58.705Z</time>
      </trkpt>
      <trkpt lat="48.246780" lon="16.661110">
        <ele>149.701390</ele>
        <time>2026-05-06T13:12:59.355Z</time>
      </trkpt>
      <trkpt lat="48.246869" lon="16.661295">
        <ele>149.714172</ele>
        <time>2026-05-06T13:13:02.842Z</time>
      </trkpt>
      <trkpt lat="48.246884" lon="16.661329">
        <ele>149.716456</ele>
        <time>2026-05-06T13:13:03.481Z</time>
      </trkpt>
      <trkpt lat="48.247365" lon="16.660882">
        <ele>149.764030</ele>
        <time>2026-05-06T13:13:24.756Z</time>
      </trkpt>
      <trkpt lat="48.249592" lon="16.659343">
        <ele>149.919604</ele>
        <time>2026-05-06T13:14:55.880Z</time>
      </trkpt>
      <trkpt lat="48.250440" lon="16.658792">
        <ele>149.994924</ele>
        <time>2026-05-06T13:15:30.669Z</time>
      </trkpt>
      <trkpt lat="48.251134" lon="16.658341">
        <ele>150.061541</ele>
        <time>2026-05-06T13:15:59.126Z</time>
      </trkpt>
      <trkpt lat="48.251460" lon="16.658163">
        <ele>150.090382</ele>
        <time>2026-05-06T13:16:12.009Z</time>
      </trkpt>
      <trkpt lat="48.251536" lon="16.658162">
        <ele>150.094717</ele>
        <time>2026-05-06T13:16:14.820Z</time>
      </trkpt>
      <trkpt lat="48.251858" lon="16.657823">
        <ele>150.117146</ele>
        <time>2026-05-06T13:16:29.389Z</time>
      </trkpt>
      <trkpt lat="48.251964" lon="16.657628">
        <ele>150.126706</ele>
        <time>2026-05-06T13:16:35.648Z</time>
      </trkpt>
      <trkpt lat="48.252689" lon="16.655668">
        <ele>150.221601</ele>
        <time>2026-05-06T13:17:31.395Z</time>
      </trkpt>
      <trkpt lat="48.252849" lon="16.655314">
        <ele>150.245032</ele>
        <time>2026-05-06T13:17:42.015Z</time>
      </trkpt>
      <trkpt lat="48.252894" lon="16.654999">
        <ele>150.262675</ele>
        <time>2026-05-06T13:17:50.006Z</time>
      </trkpt>
      <trkpt lat="48.252866" lon="16.654323">
        <ele>150.299766</ele>
        <time>2026-05-06T13:18:06.811Z</time>
      </trkpt>
      <trkpt lat="48.252706" lon="16.653636">
        <ele>150.338541</ele>
        <time>2026-05-06T13:18:24.908Z</time>
      </trkpt>
      <trkpt lat="48.252543" lon="16.653095">
        <ele>150.352316</ele>
        <time>2026-05-06T13:18:39.721Z</time>
      </trkpt>
      <trkpt lat="48.252331" lon="16.652025">
        <ele>150.378214</ele>
        <time>2026-05-06T13:19:07.363Z</time>
      </trkpt>
      <trkpt lat="48.252317" lon="16.651491">
        <ele>150.390611</ele>
        <time>2026-05-06T13:19:20.538Z</time>
      </trkpt>
      <trkpt lat="48.252331" lon="16.650958">
        <ele>150.409826</ele>
        <time>2026-05-06T13:19:33.719Z</time>
      </trkpt>
      <trkpt lat="48.252387" lon="16.650596">
        <ele>150.441354</ele>
        <time>2026-05-06T13:19:42.887Z</time>
      </trkpt>
      <trkpt lat="48.252509" lon="16.650247">
        <ele>150.474793</ele>
        <time>2026-05-06T13:19:52.664Z</time>
      </trkpt>
      <trkpt lat="48.252731" lon="16.650108">
        <ele>150.505436</ele>
        <time>2026-05-06T13:20:01.612Z</time>
      </trkpt>
      <trkpt lat="48.253115" lon="16.650179">
        <ele>150.554729</ele>
        <time>2026-05-06T13:20:16.173Z</time>
      </trkpt>
      <trkpt lat="48.254765" lon="16.651259">
        <ele>150.841385</ele>
        <time>2026-05-06T13:21:24.778Z</time>
      </trkpt>
      <trkpt lat="48.255938" lon="16.651425">
        <ele>150.947896</ele>
        <time>2026-05-06T13:22:08.738Z</time>
      </trkpt>
      <trkpt lat="48.256332" lon="16.651601">
        <ele>150.950751</ele>
        <time>2026-05-06T13:22:23.883Z</time>
      </trkpt>
      <trkpt lat="48.256938" lon="16.651985">
        <ele>150.955319</ele>
        <time>2026-05-06T13:22:48.122Z</time>
      </trkpt>
      <trkpt lat="48.257424" lon="16.652169">
        <ele>150.946158</ele>
        <time>2026-05-06T13:23:06.552Z</time>
      </trkpt>
      <trkpt lat="48.257977" lon="16.652265">
        <ele>150.930658</ele>
        <time>2026-05-06T13:23:27.000Z</time>
      </trkpt>
      <trkpt lat="48.258730" lon="16.652145">
        <ele>150.909573</ele>
        <time>2026-05-06T13:23:55.060Z</time>
      </trkpt>
      <trkpt lat="48.259056" lon="16.652093">
        <ele>150.941068</ele>
        <time>2026-05-06T13:24:07.323Z</time>
      </trkpt>
      <trkpt lat="48.259346" lon="16.651982">
        <ele>150.991613</ele>
        <time>2026-05-06T13:24:18.485Z</time>
      </trkpt>
      <trkpt lat="48.259557" lon="16.651995">
        <ele>151.027280</ele>
        <time>2026-05-06T13:24:26.458Z</time>
      </trkpt>
      <trkpt lat="48.259696" lon="16.651950">
        <ele>151.051296</ele>
        <time>2026-05-06T13:24:31.820Z</time>
      </trkpt>
      <trkpt lat="48.259933" lon="16.651743">
        <ele>151.097600</ele>
        <time>2026-05-06T13:24:42.222Z</time>
      </trkpt>
      <trkpt lat="48.260009" lon="16.651394">
        <ele>151.138888</ele>
        <time>2026-05-06T13:24:51.478Z</time>
      </trkpt>
      <trkpt lat="48.260050" lon="16.651370">
        <ele>151.146320</ele>
        <time>2026-05-06T13:24:53.160Z</time>
      </trkpt>
      <trkpt lat="48.260130" lon="16.651304">
        <ele>151.161736</ele>
        <time>2026-05-06T13:24:56.642Z</time>
      </trkpt>
      <trkpt lat="48.260175" lon="16.651255">
        <ele>151.171123</ele>
        <time>2026-05-06T13:24:58.753Z</time>
      </trkpt>
      <trkpt lat="48.260185" lon="16.651163">
        <ele>151.181605</ele>
        <time>2026-05-06T13:25:01.133Z</time>
      </trkpt>
      <trkpt lat="48.260097" lon="16.650562">
        <ele>151.279959</ele>
        <time>2026-05-06T13:25:16.741Z</time>
      </trkpt>
      <trkpt lat="48.260183" lon="16.650025">
        <ele>151.386429</ele>
        <time>2026-05-06T13:25:30.771Z</time>
      </trkpt>
      <trkpt lat="48.260189" lon="16.649559">
        <ele>151.476276</ele>
        <time>2026-05-06T13:25:42.779Z</time>
      </trkpt>
      <trkpt lat="48.260128" lon="16.649231">
        <ele>151.541925</ele>
        <time>2026-05-06T13:25:51.465Z</time>
      </trkpt>
      <trkpt lat="48.259827" lon="16.648236">
        <ele>151.738119</ele>
        <time>2026-05-06T13:26:19.348Z</time>
      </trkpt>
      <trkpt lat="48.259700" lon="16.647554">
        <ele>151.784029</ele>
        <time>2026-05-06T13:26:37.203Z</time>
      </trkpt>
      <trkpt lat="48.259528" lon="16.646234">
        <ele>151.871226</ele>
        <time>2026-05-06T13:27:10.590Z</time>
      </trkpt>
      <trkpt lat="48.259525" lon="16.645671">
        <ele>151.907522</ele>
        <time>2026-05-06T13:27:24.440Z</time>
      </trkpt>
      <trkpt lat="48.259714" lon="16.644838">
        <ele>151.958124</ele>
        <time>2026-05-06T13:27:46.212Z</time>
      </trkpt>
      <trkpt lat="48.259898" lon="16.644290">
        <ele>151.993414</ele>
        <time>2026-05-06T13:28:01.553Z</time>
      </trkpt>
      <trkpt lat="48.260369" lon="16.643123">
        <ele>152.043155</ele>
        <time>2026-05-06T13:28:35.737Z</time>
      </trkpt>
      <trkpt lat="48.260463" lon="16.642505">
        <ele>151.980968</ele>
        <time>2026-05-06T13:28:51.349Z</time>
      </trkpt>
      <trkpt lat="48.260441" lon="16.641671">
        <ele>151.899090</ele>
        <time>2026-05-06T13:29:11.508Z</time>
      </trkpt>
      <trkpt lat="48.260296" lon="16.640977">
        <ele>151.827735</ele>
        <time>2026-05-06T13:29:28.905Z</time>
      </trkpt>
      <trkpt lat="48.260011" lon="16.640298">
        <ele>151.763935</ele>
        <time>2026-05-06T13:29:48.144Z</time>
      </trkpt>
      <trkpt lat="48.259153" lon="16.639141">
        <ele>151.647772</ele>
        <time>2026-05-06T13:30:30.486Z</time>
      </trkpt>
      <trkpt lat="48.258675" lon="16.638086">
        <ele>151.636956</ele>
        <time>2026-05-06T13:31:02.218Z</time>
      </trkpt>
      <trkpt lat="48.258444" lon="16.637333">
        <ele>151.660027</ele>
        <time>2026-05-06T13:31:22.753Z</time>
      </trkpt>
      <trkpt lat="48.258466" lon="16.637059">
        <ele>151.667706</ele>
        <time>2026-05-06T13:31:29.580Z</time>
      </trkpt>
      <trkpt lat="48.258539" lon="16.636600">
        <ele>151.680838</ele>
        <time>2026-05-06T13:31:41.250Z</time>
      </trkpt>
      <trkpt lat="48.258496" lon="16.636609">
        <ele>151.682653</ele>
        <time>2026-05-06T13:31:42.235Z</time>
      </trkpt>
      <trkpt lat="48.258348" lon="16.636639">
        <ele>151.688894</ele>
        <time>2026-05-06T13:31:45.551Z</time>
      </trkpt>
      <trkpt lat="48.258058" lon="16.636733">
        <ele>151.675017</ele>
        <time>2026-05-06T13:31:52.140Z</time>
      </trkpt>
      <trkpt lat="48.254104" lon="16.638239">
        <ele>151.432406</ele>
        <time>2026-05-06T13:33:21.807Z</time>
      </trkpt>
      <trkpt lat="48.251093" lon="16.639350">
        <ele>151.349220</ele>
        <time>2026-05-06T13:34:30.756Z</time>
      </trkpt>
      <trkpt lat="48.249966" lon="16.639766">
        <ele>151.254085</ele>
        <time>2026-05-06T13:34:55.594Z</time>
      </trkpt>
      <trkpt lat="48.249505" lon="16.639934">
        <ele>151.248454</ele>
        <time>2026-05-06T13:35:06.354Z</time>
      </trkpt>
      <trkpt lat="48.249034" lon="16.640099">
        <ele>151.394296</ele>
        <time>2026-05-06T13:35:17.598Z</time>
      </trkpt>
      <trkpt lat="48.248873" lon="16.640274">
        <ele>151.454228</ele>
        <time>2026-05-06T13:35:22.217Z</time>
      </trkpt>
      <trkpt lat="48.248819" lon="16.640246">
        <ele>151.471454</ele>
        <time>2026-05-06T13:35:23.548Z</time>
      </trkpt>
      <trkpt lat="48.248342" lon="16.640262">
        <ele>151.615328</ele>
        <time>2026-05-06T13:35:35.098Z</time>
      </trkpt>
      <trkpt lat="48.247795" lon="16.640027">
        <ele>151.756488</ele>
        <time>2026-05-06T13:35:48.797Z</time>
      </trkpt>
      <trkpt lat="48.247539" lon="16.639951">
        <ele>151.727455</ele>
        <time>2026-05-06T13:35:54.758Z</time>
      </trkpt>
      <trkpt lat="48.247144" lon="16.639915">
        <ele>151.683429</ele>
        <time>2026-05-06T13:36:03.500Z</time>
      </trkpt>
      <trkpt lat="48.246607" lon="16.640024">
        <ele>151.623142</ele>
        <time>2026-05-06T13:36:15.278Z</time>
      </trkpt>
      <trkpt lat="48.245451" lon="16.640318">
        <ele>151.344371</ele>
        <time>2026-05-06T13:36:39.509Z</time>
      </trkpt>
      <trkpt lat="48.244872" lon="16.640227">
        <ele>151.145939</ele>
        <time>2026-05-06T13:36:51.560Z</time>
      </trkpt>
      <trkpt lat="48.244474" lon="16.640073">
        <ele>151.005847</ele>
        <time>2026-05-06T13:37:00.346Z</time>
      </trkpt>
      <trkpt lat="48.243702" lon="16.639730">
        <ele>150.998627</ele>
        <time>2026-05-06T13:37:18.231Z</time>
      </trkpt>
      <trkpt lat="48.243424" lon="16.639640">
        <ele>151.019385</ele>
        <time>2026-05-06T13:37:24.930Z</time>
      </trkpt>
      <trkpt lat="48.242880" lon="16.639803">
        <ele>151.059875</ele>
        <time>2026-05-06T13:37:37.768Z</time>
      </trkpt>
      <trkpt lat="48.242705" lon="16.639797">
        <ele>151.072652</ele>
        <time>2026-05-06T13:37:41.672Z</time>
      </trkpt>
      <trkpt lat="48.242212" lon="16.639633">
        <ele>151.046865</ele>
        <time>2026-05-06T13:37:52.790Z</time>
      </trkpt>
      <trkpt lat="48.242054" lon="16.639581">
        <ele>151.030995</ele>
        <time>2026-05-06T13:37:56.330Z</time>
      </trkpt>
      <trkpt lat="48.241749" lon="16.639482">
        <ele>151.000378</ele>
        <time>2026-05-06T13:38:03.147Z</time>
      </trkpt>
      <trkpt lat="48.241611" lon="16.639392">
        <ele>150.985616</ele>
        <time>2026-05-06T13:38:06.401Z</time>
      </trkpt>
      <trkpt lat="48.241447" lon="16.639214">
        <ele>150.965762</ele>
        <time>2026-05-06T13:38:10.754Z</time>
      </trkpt>
      <trkpt lat="48.241171" lon="16.638834">
        <ele>150.929021</ele>
        <time>2026-05-06T13:38:18.723Z</time>
      </trkpt>
      <trkpt lat="48.241142" lon="16.638749">
        <ele>150.922781</ele>
        <time>2026-05-06T13:38:20.096Z</time>
      </trkpt>
      <trkpt lat="48.241038" lon="16.638681">
        <ele>150.911651</ele>
        <time>2026-05-06T13:38:22.549Z</time>
      </trkpt>
      <trkpt lat="48.240901" lon="16.638635">
        <ele>150.892166</ele>
        <time>2026-05-06T13:38:25.603Z</time>
      </trkpt>
      <trkpt lat="48.236782" lon="16.638027">
        <ele>150.349720</ele>
        <time>2026-05-06T13:39:54.959Z</time>
      </trkpt>
      <trkpt lat="48.235713" lon="16.637873">
        <ele>150.411809</ele>
        <time>2026-05-06T13:40:19.704Z</time>
      </trkpt>
      <trkpt lat="48.230911" lon="16.636430">
        <ele>151.217652</ele>
        <time>2026-05-06T13:42:12.274Z</time>
      </trkpt>
      <trkpt lat="48.230295" lon="16.636387">
        <ele>151.285672</ele>
        <time>2026-05-06T13:42:25.914Z</time>
      </trkpt>
      <trkpt lat="48.227924" lon="16.635833">
        <ele>151.205003</ele>
        <time>2026-05-06T13:43:19.083Z</time>
      </trkpt>
      <trkpt lat="48.227516" lon="16.635850">
        <ele>151.190688</ele>
        <time>2026-05-06T13:43:28.108Z</time>
      </trkpt>
      <trkpt lat="48.227447" lon="16.636181">
        <ele>151.182584</ele>
        <time>2026-05-06T13:43:33.206Z</time>
      </trkpt>
      <trkpt lat="48.227304" lon="16.636195">
        <ele>151.177558</ele>
        <time>2026-05-06T13:43:36.372Z</time>
      </trkpt>
      <trkpt lat="48.227078" lon="16.636282">
        <ele>151.169375</ele>
        <time>2026-05-06T13:43:41.510Z</time>
      </trkpt>
      <trkpt lat="48.225356" lon="16.636185">
        <ele>151.002324</ele>
        <time>2026-05-06T13:44:19.273Z</time>
      </trkpt>
      <trkpt lat="48.224976" lon="16.636212">
        <ele>150.969370</ele>
        <time>2026-05-06T13:44:27.427Z</time>
      </trkpt>
      <trkpt lat="48.224108" lon="16.636368">
        <ele>150.917647</ele>
        <time>2026-05-06T13:44:46.342Z</time>
      </trkpt>
      <trkpt lat="48.223431" lon="16.636355">
        <ele>150.877589</ele>
        <time>2026-05-06T13:45:01.400Z</time>
      </trkpt>
      <trkpt lat="48.222648" lon="16.636225">
        <ele>150.909000</ele>
        <time>2026-05-06T13:45:19.514Z</time>
      </trkpt>
      <trkpt lat="48.222212" lon="16.636050">
        <ele>150.933758</ele>
        <time>2026-05-06T13:45:29.951Z</time>
      </trkpt>
      <trkpt lat="48.221628" lon="16.635779">
        <ele>150.967290</ele>
        <time>2026-05-06T13:45:43.708Z</time>
      </trkpt>
      <trkpt lat="48.220341" lon="16.634982">
        <ele>150.279108</ele>
        <time>2026-05-06T13:46:12.223Z</time>
      </trkpt>
      <trkpt lat="48.219320" lon="16.634214">
        <ele>150.139955</ele>
        <time>2026-05-06T13:46:35.004Z</time>
      </trkpt>
      <trkpt lat="48.217387" lon="16.632531">
        <ele>150.751543</ele>
        <time>2026-05-06T13:47:30.901Z</time>
      </trkpt>
      <trkpt lat="48.213411" lon="16.629975">
        <ele>150.763499</ele>
        <time>2026-05-06T13:49:05.560Z</time>
      </trkpt>
      <trkpt lat="48.212768" lon="16.629474">
        <ele>150.941252</ele>
        <time>2026-05-06T13:49:21.993Z</time>
      </trkpt>
      <trkpt lat="48.212021" lon="16.629118">
        <ele>151.133545</ele>
        <time>2026-05-06T13:49:40.357Z</time>
      </trkpt>
      <trkpt lat="48.211108" lon="16.628600">
        <ele>151.619369</ele>
        <time>2026-05-06T13:50:04.496Z</time>
      </trkpt>
      <trkpt lat="48.210628" lon="16.628322">
        <ele>151.918019</ele>
        <time>2026-05-06T13:50:17.328Z</time>
      </trkpt>
      <trkpt lat="48.210457" lon="16.628190">
        <ele>152.029640</ele>
        <time>2026-05-06T13:50:22.041Z</time>
      </trkpt>
      <trkpt lat="48.209838" lon="16.627879">
        <ele>152.319003</ele>
        <time>2026-05-06T13:50:37.868Z</time>
      </trkpt>
      <trkpt lat="48.209255" lon="16.627592">
        <ele>152.489578</ele>
        <time>2026-05-06T13:50:52.349Z</time>
      </trkpt>
      <trkpt lat="48.208632" lon="16.627258">
        <ele>152.673497</ele>
        <time>2026-05-06T13:51:07.464Z</time>
      </trkpt>
      <trkpt lat="48.208466" lon="16.627111">
        <ele>152.727083</ele>
        <time>2026-05-06T13:51:11.881Z</time>
      </trkpt>
      <trkpt lat="48.207360" lon="16.626068">
        <ele>152.828123</ele>
        <time>2026-05-06T13:51:41.981Z</time>
      </trkpt>
      <trkpt lat="48.207059" lon="16.626841">
        <ele>152.842506</ele>
        <time>2026-05-06T13:51:54.986Z</time>
      </trkpt>
      <trkpt lat="48.206856" lon="16.627288">
        <ele>152.720785</ele>
        <time>2026-05-06T13:52:02.629Z</time>
      </trkpt>
      <trkpt lat="48.206394" lon="16.628072">
        <ele>152.485288</ele>
        <time>2026-05-06T13:52:17.076Z</time>
      </trkpt>
      <trkpt lat="48.206116" lon="16.628398">
        <ele>152.366155</ele>
        <time>2026-05-06T13:52:24.247Z</time>
      </trkpt>
      <trkpt lat="48.205337" lon="16.629017">
        <ele>152.168664</ele>
        <time>2026-05-06T13:52:42.905Z</time>
      </trkpt>
      <trkpt lat="48.205186" lon="16.629165">
        <ele>152.139835</ele>
        <time>2026-05-06T13:52:46.877Z</time>
      </trkpt>
      <trkpt lat="48.205154" lon="16.629195">
        <ele>152.133804</ele>
        <time>2026-05-06T13:52:47.695Z</time>
      </trkpt>
      <trkpt lat="48.204982" lon="16.629500">
        <ele>152.091242</ele>
        <time>2026-05-06T13:52:53.625Z</time>
      </trkpt>
      <trkpt lat="48.204760" lon="16.629871">
        <ele>152.038127</ele>
        <time>2026-05-06T13:53:00.960Z</time>
      </trkpt>
      <trkpt lat="48.204623" lon="16.630013">
        <ele>152.011512</ele>
        <time>2026-05-06T13:53:04.605Z</time>
      </trkpt>
      <trkpt lat="48.204400" lon="16.630150">
        <ele>151.972995</ele>
        <time>2026-05-06T13:53:09.907Z</time>
      </trkpt>
      <trkpt lat="48.203986" lon="16.630337">
        <ele>151.866191</ele>
        <time>2026-05-06T13:53:19.246Z</time>
      </trkpt>
      <trkpt lat="48.203753" lon="16.630463">
        <ele>151.804430</ele>
        <time>2026-05-06T13:53:24.474Z</time>
      </trkpt>
      <trkpt lat="48.202436" lon="16.631033">
        <ele>151.486436</ele>
        <time>2026-05-06T13:53:53.385Z</time>
      </trkpt>
      <trkpt lat="48.201158" lon="16.631516">
        <ele>151.288118</ele>
        <time>2026-05-06T13:54:22.100Z</time>
      </trkpt>
      <trkpt lat="48.200636" lon="16.631824">
        <ele>151.216195</ele>
        <time>2026-05-06T13:54:34.404Z</time>
      </trkpt>
      <trkpt lat="48.198856" lon="16.633107">
        <ele>151.008280</ele>
        <time>2026-05-06T13:55:17.483Z</time>
      </trkpt>
      <trkpt lat="48.195459" lon="16.635459">
        <ele>150.854971</ele>
        <time>2026-05-06T13:56:39.512Z</time>
      </trkpt>
      <trkpt lat="48.193557" lon="16.636817">
        <ele>151.048532</ele>
        <time>2026-05-06T13:57:28.635Z</time>
      </trkpt>
      <trkpt lat="48.193136" lon="16.637194">
        <ele>151.058260</ele>
        <time>2026-05-06T13:57:39.264Z</time>
      </trkpt>
      <trkpt lat="48.191892" lon="16.638341">
        <ele>151.094118</ele>
        <time>2026-05-06T13:58:09.869Z</time>
      </trkpt>
      <trkpt lat="48.191044" lon="16.639119">
        <ele>151.286115</ele>
        <time>2026-05-06T13:58:34.265Z</time>
      </trkpt>
      <trkpt lat="48.190973" lon="16.639176">
        <ele>151.333362</ele>
        <time>2026-05-06T13:58:36.313Z</time>
      </trkpt>
      <trkpt lat="48.190846" lon="16.639320">
        <ele>151.426766</ele>
        <time>2026-05-06T13:58:40.463Z</time>
      </trkpt>
      <trkpt lat="48.190719" lon="16.639541">
        <ele>151.540887</ele>
        <time>2026-05-06T13:58:45.483Z</time>
      </trkpt>
      <trkpt lat="48.190705" lon="16.639696">
        <ele>151.602066</ele>
        <time>2026-05-06T13:58:48.116Z</time>
      </trkpt>
      <trkpt lat="48.190686" lon="16.639912">
        <ele>151.687282</ele>
        <time>2026-05-06T13:58:51.775Z</time>
      </trkpt>
      <trkpt lat="48.190638" lon="16.640457">
        <ele>151.902300</ele>
        <time>2026-05-06T13:59:00.921Z</time>
      </trkpt>
      <trkpt lat="48.190537" lon="16.641673">
        <ele>152.209883</ele>
        <time>2026-05-06T13:59:20.185Z</time>
      </trkpt>
      <trkpt lat="48.190407" lon="16.643151">
        <ele>152.325092</ele>
        <time>2026-05-06T13:59:42.563Z</time>
      </trkpt>
      <trkpt lat="48.190394" lon="16.643293">
        <ele>152.336169</ele>
        <time>2026-05-06T13:59:44.695Z</time>
      </trkpt>
      <trkpt lat="48.190360" lon="16.643700">
        <ele>152.367868</ele>
        <time>2026-05-06T13:59:50.825Z</time>
      </trkpt>
      <trkpt lat="48.190347" lon="16.643899">
        <ele>152.356757</ele>
        <time>2026-05-06T13:59:53.788Z</time>
      </trkpt>
      <trkpt lat="48.190289" lon="16.644496">
        <ele>152.231751</ele>
        <time>2026-05-06T14:00:02.559Z</time>
      </trkpt>
      <trkpt lat="48.190226" lon="16.645367">
        <ele>152.050219</ele>
        <time>2026-05-06T14:00:14.952Z</time>
      </trkpt>
      <trkpt lat="48.190034" lon="16.648003">
        <ele>151.336373</ele>
        <time>2026-05-06T14:00:51.237Z</time>
      </trkpt>
      <trkpt lat="48.190018" lon="16.648225">
        <ele>151.266056</ele>
        <time>2026-05-06T14:00:54.227Z</time>
      </trkpt>
      <trkpt lat="48.189979" lon="16.648758">
        <ele>151.097202</ele>
        <time>2026-05-06T14:01:01.597Z</time>
      </trkpt>
      <trkpt lat="48.189940" lon="16.649120">
        <ele>150.981726</ele>
        <time>2026-05-06T14:01:06.733Z</time>
      </trkpt>
      <trkpt lat="48.189871" lon="16.649268">
        <ele>150.952376</ele>
        <time>2026-05-06T14:01:09.262Z</time>
      </trkpt>
      <trkpt lat="48.189780" lon="16.649363">
        <ele>150.933836</ele>
        <time>2026-05-06T14:01:11.580Z</time>
      </trkpt>
      <trkpt lat="48.189304" lon="16.649806">
        <ele>150.840165</ele>
        <time>2026-05-06T14:01:23.563Z</time>
      </trkpt>
      <trkpt lat="48.189161" lon="16.649980">
        <ele>150.809374</ele>
        <time>2026-05-06T14:01:27.506Z</time>
      </trkpt>
      <trkpt lat="48.188723" lon="16.650498">
        <ele>150.716105</ele>
        <time>2026-05-06T14:01:40.076Z</time>
      </trkpt>
      <trkpt lat="48.187852" lon="16.651717">
        <ele>150.594736</ele>
        <time>2026-05-06T14:02:06.074Z</time>
      </trkpt>
      <trkpt lat="48.187478" lon="16.652321">
        <ele>150.550589</ele>
        <time>2026-05-06T14:02:17.965Z</time>
      </trkpt>
      <trkpt lat="48.187062" lon="16.653026">
        <ele>150.535179</ele>
        <time>2026-05-06T14:02:31.669Z</time>
      </trkpt>
      <trkpt lat="48.186064" lon="16.654755">
        <ele>150.607204</ele>
        <time>2026-05-06T14:03:06.181Z</time>
      </trkpt>
      <trkpt lat="48.186003" lon="16.654858">
        <ele>150.598194</ele>
        <time>2026-05-06T14:03:08.274Z</time>
      </trkpt>
      <trkpt lat="48.185844" lon="16.655131">
        <ele>150.574487</ele>
        <time>2026-05-06T14:03:13.733Z</time>
      </trkpt>
      <trkpt lat="48.185456" lon="16.655716">
        <ele>150.520520</ele>
        <time>2026-05-06T14:03:25.923Z</time>
      </trkpt>
      <trkpt lat="48.184877" lon="16.656319">
        <ele>150.451375</ele>
        <time>2026-05-06T14:03:41.125Z</time>
      </trkpt>
      <trkpt lat="48.183548" lon="16.657529">
        <ele>150.144047</ele>
        <time>2026-05-06T14:04:14.051Z</time>
      </trkpt>
      <trkpt lat="48.183357" lon="16.657663">
        <ele>150.099091</ele>
        <time>2026-05-06T14:04:18.626Z</time>
      </trkpt>
      <trkpt lat="48.182836" lon="16.657942">
        <ele>150.105261</ele>
        <time>2026-05-06T14:04:30.798Z</time>
      </trkpt>
      <trkpt lat="48.182597" lon="16.658133">
        <ele>150.155766</ele>
        <time>2026-05-06T14:04:36.851Z</time>
      </trkpt>
      <trkpt lat="48.182488" lon="16.658261">
        <ele>150.181584</ele>
        <time>2026-05-06T14:04:39.995Z</time>
      </trkpt>
      <trkpt lat="48.182226" lon="16.658632">
        <ele>150.248783</ele>
        <time>2026-05-06T14:04:48.374Z</time>
      </trkpt>
      <trkpt lat="48.182083" lon="16.658878">
        <ele>150.289365</ele>
        <time>2026-05-06T14:04:53.551Z</time>
      </trkpt>
      <trkpt lat="48.181903" lon="16.659266">
        <ele>150.348142</ele>
        <time>2026-05-06T14:05:01.163Z</time>
      </trkpt>
      <trkpt lat="48.181434" lon="16.660557">
        <ele>150.514368</ele>
        <time>2026-05-06T14:05:24.338Z</time>
      </trkpt>
      <trkpt lat="48.181305" lon="16.660918">
        <ele>150.559596</ele>
        <time>2026-05-06T14:05:30.595Z</time>
      </trkpt>
      <trkpt lat="48.181212" lon="16.661308">
        <ele>150.605334</ele>
        <time>2026-05-06T14:05:36.817Z</time>
      </trkpt>
      <trkpt lat="48.181081" lon="16.662130">
        <ele>150.657951</ele>
        <time>2026-05-06T14:05:49.196Z</time>
      </trkpt>
      <trkpt lat="48.180871" lon="16.663310">
        <ele>150.487692</ele>
        <time>2026-05-06T14:06:06.414Z</time>
      </trkpt>
      <trkpt lat="48.180729" lon="16.663698">
        <ele>150.425990</ele>
        <time>2026-05-06T14:06:12.639Z</time>
      </trkpt>
      <trkpt lat="48.180623" lon="16.663860">
        <ele>150.394348</ele>
        <time>2026-05-06T14:06:15.858Z</time>
      </trkpt>
      <trkpt lat="48.180291" lon="16.664268">
        <ele>150.304625</ele>
        <time>2026-05-06T14:06:25.120Z</time>
      </trkpt>
      <trkpt lat="48.179857" lon="16.664737">
        <ele>150.437810</ele>
        <time>2026-05-06T14:06:36.885Z</time>
      </trkpt>
      <trkpt lat="48.179474" lon="16.665084">
        <ele>150.549218</ele>
        <time>2026-05-06T14:06:47.095Z</time>
      </trkpt>
      <trkpt lat="48.179119" lon="16.665404">
        <ele>150.652341</ele>
        <time>2026-05-06T14:06:57.060Z</time>
      </trkpt>
      <trkpt lat="48.178975" lon="16.665576">
        <ele>150.698176</ele>
        <time>2026-05-06T14:07:01.618Z</time>
      </trkpt>
      <trkpt lat="48.178566" lon="16.666836">
        <ele>150.907667</ele>
        <time>2026-05-06T14:07:24.722Z</time>
      </trkpt>
      <trkpt lat="48.178095" lon="16.667952">
        <ele>151.098469</ele>
        <time>2026-05-06T14:07:44.835Z</time>
      </trkpt>
      <trkpt lat="48.177897" lon="16.668398">
        <ele>151.080600</ele>
        <time>2026-05-06T14:07:52.387Z</time>
      </trkpt>
      <trkpt lat="48.177188" lon="16.669810">
        <ele>150.615439</ele>
        <time>2026-05-06T14:08:16.255Z</time>
      </trkpt>
      <trkpt lat="48.176998" lon="16.670273">
        <ele>150.472367</ele>
        <time>2026-05-06T14:08:23.751Z</time>
      </trkpt>
      <trkpt lat="48.176864" lon="16.670828">
        <ele>150.435004</ele>
        <time>2026-05-06T14:08:32.541Z</time>
      </trkpt>
      <trkpt lat="48.176751" lon="16.671184">
        <ele>150.437473</ele>
        <time>2026-05-06T14:08:38.616Z</time>
      </trkpt>
      <trkpt lat="48.176487" lon="16.671909">
        <ele>150.442645</ele>
        <time>2026-05-06T14:08:51.355Z</time>
      </trkpt>
      <trkpt lat="48.176348" lon="16.672215">
        <ele>150.444964</ele>
        <time>2026-05-06T14:08:57.004Z</time>
      </trkpt>
      <trkpt lat="48.176135" lon="16.672568">
        <ele>150.447945</ele>
        <time>2026-05-06T14:09:04.108Z</time>
      </trkpt>
      <trkpt lat="48.175649" lon="16.673189">
        <ele>150.163758</ele>
        <time>2026-05-06T14:09:17.579Z</time>
      </trkpt>
      <trkpt lat="48.174974" lon="16.673893">
        <ele>149.703613</ele>
        <time>2026-05-06T14:09:33.714Z</time>
      </trkpt>
      <trkpt lat="48.174541" lon="16.674303">
        <ele>149.429554</ele>
        <time>2026-05-06T14:09:44.045Z</time>
      </trkpt>
      <trkpt lat="48.174250" lon="16.674490">
        <ele>149.339372</ele>
        <time>2026-05-06T14:09:50.637Z</time>
      </trkpt>
      <trkpt lat="48.173271" lon="16.674600">
        <ele>149.059723</ele>
        <time>2026-05-06T14:10:11.880Z</time>
      </trkpt>
      <trkpt lat="48.172632" lon="16.674992">
        <ele>148.887362</ele>
        <time>2026-05-06T14:10:26.805Z</time>
      </trkpt>
      <trkpt lat="48.171234" lon="16.675694">
        <ele>148.619399</ele>
        <time>2026-05-06T14:10:58.267Z</time>
      </trkpt>
      <trkpt lat="48.170773" lon="16.676040">
        <ele>148.582360</ele>
        <time>2026-05-06T14:11:09.603Z</time>
      </trkpt>
      <trkpt lat="48.169976" lon="16.676745">
        <ele>148.536989</ele>
        <time>2026-05-06T14:11:30.314Z</time>
      </trkpt>
      <trkpt lat="48.169414" lon="16.677167">
        <ele>148.499690</ele>
        <time>2026-05-06T14:11:44.183Z</time>
      </trkpt>
      <trkpt lat="48.168169" lon="16.677896">
        <ele>148.386593</ele>
        <time>2026-05-06T14:12:13.119Z</time>
      </trkpt>
      <trkpt lat="48.167331" lon="16.678495">
        <ele>148.544423</ele>
        <time>2026-05-06T14:12:34.130Z</time>
      </trkpt>
      <trkpt lat="48.165840" lon="16.679734">
        <ele>148.985160</ele>
        <time>2026-05-06T14:13:14.650Z</time>
      </trkpt>
      <trkpt lat="48.165481" lon="16.680093">
        <ele>149.077581</ele>
        <time>2026-05-06T14:13:24.597Z</time>
      </trkpt>
      <trkpt lat="48.165197" lon="16.680618">
        <ele>149.174142</ele>
        <time>2026-05-06T14:13:34.925Z</time>
      </trkpt>
      <trkpt lat="48.164861" lon="16.681383">
        <ele>149.204051</ele>
        <time>2026-05-06T14:13:48.751Z</time>
      </trkpt>
      <trkpt lat="48.164524" lon="16.681960">
        <ele>149.106374</ele>
        <time>2026-05-06T14:13:59.943Z</time>
      </trkpt>
      <trkpt lat="48.164114" lon="16.682439">
        <ele>149.007125</ele>
        <time>2026-05-06T14:14:11.190Z</time>
      </trkpt>
      <trkpt lat="48.162597" lon="16.683514">
        <ele>148.420240</ele>
        <time>2026-05-06T14:14:45.535Z</time>
      </trkpt>
      <trkpt lat="48.161843" lon="16.683910">
        <ele>148.180104</ele>
        <time>2026-05-06T14:15:02.441Z</time>
      </trkpt>
      <trkpt lat="48.161725" lon="16.683788">
        <ele>148.205767</ele>
        <time>2026-05-06T14:15:05.952Z</time>
      </trkpt>
      <trkpt lat="48.159100" lon="16.682154">
        <ele>148.779698</ele>
        <time>2026-05-06T14:16:19.459Z</time>
      </trkpt>
      <trkpt lat="48.158397" lon="16.681283">
        <ele>148.863646</ele>
        <time>2026-05-06T14:16:42.232Z</time>
      </trkpt>
      <trkpt lat="48.158038" lon="16.680839">
        <ele>148.844729</ele>
        <time>2026-05-06T14:16:53.575Z</time>
      </trkpt>
      <trkpt lat="48.156529" lon="16.679050">
        <ele>148.793626</ele>
        <time>2026-05-06T14:17:40.375Z</time>
      </trkpt>
      <trkpt lat="48.156458" lon="16.679078">
        <ele>148.792535</ele>
        <time>2026-05-06T14:17:42.183Z</time>
      </trkpt>
      <trkpt lat="48.155093" lon="16.680551">
        <ele>149.003233</ele>
        <time>2026-05-06T14:18:24.438Z</time>
      </trkpt>
      <trkpt lat="48.154015" lon="16.681770">
        <ele>149.058139</ele>
        <time>2026-05-06T14:18:59.979Z</time>
      </trkpt>
      <trkpt lat="48.153502" lon="16.682243">
        <ele>148.930767</ele>
        <time>2026-05-06T14:19:14.479Z</time>
      </trkpt>
      <trkpt lat="48.151505" lon="16.683624">
        <ele>147.951659</ele>
        <time>2026-05-06T14:20:03.251Z</time>
      </trkpt>
      <trkpt lat="48.149998" lon="16.684671">
        <ele>148.215817</ele>
        <time>2026-05-06T14:20:46.795Z</time>
      </trkpt>
      <trkpt lat="48.149809" lon="16.684696">
        <ele>148.267999</ele>
        <time>2026-05-06T14:20:51.727Z</time>
      </trkpt>
      <trkpt lat="48.149813" lon="16.685971">
        <ele>148.354782</ele>
        <time>2026-05-06T14:21:11.926Z</time>
      </trkpt>
      <trkpt lat="48.149814" lon="16.686377">
        <ele>148.369468</ele>
        <time>2026-05-06T14:21:18.011Z</time>
      </trkpt>
      <trkpt lat="48.149816" lon="16.687145">
        <ele>148.397248</ele>
        <time>2026-05-06T14:21:29.068Z</time>
      </trkpt>
      <trkpt lat="48.149766" lon="16.687145">
        <ele>148.399959</ele>
        <time>2026-05-06T14:21:30.107Z</time>
      </trkpt>
      <trkpt lat="48.149773" lon="16.687898">
        <ele>148.399236</ele>
        <time>2026-05-06T14:21:40.933Z</time>
      </trkpt>
      <trkpt lat="48.149246" lon="16.687855">
        <ele>148.355360</ele>
        <time>2026-05-06T14:21:52.164Z</time>
      </trkpt>
      <trkpt lat="48.149143" lon="16.690412">
        <ele>148.350602</ele>
        <time>2026-05-06T14:22:32.082Z</time>
      </trkpt>
      <trkpt lat="48.149125" lon="16.690936">
        <ele>148.396397</ele>
        <time>2026-05-06T14:22:40.544Z</time>
      </trkpt>
      <trkpt lat="48.149093" lon="16.691110">
        <ele>148.412150</ele>
        <time>2026-05-06T14:22:43.430Z</time>
      </trkpt>
      <trkpt lat="48.149026" lon="16.691318">
        <ele>148.432309</ele>
        <time>2026-05-06T14:22:47.075Z</time>
      </trkpt>
      <trkpt lat="48.148791" lon="16.691724">
        <ele>148.479221</ele>
        <time>2026-05-06T14:22:55.457Z</time>
      </trkpt>
      <trkpt lat="48.147959" lon="16.692563">
        <ele>148.986367</ele>
        <time>2026-05-06T14:23:19.160Z</time>
      </trkpt>
      <trkpt lat="48.147823" lon="16.693559">
        <ele>149.382651</ele>
        <time>2026-05-06T14:23:37.190Z</time>
      </trkpt>
      <trkpt lat="48.147351" lon="16.694813">
        <ele>149.775072</ele>
        <time>2026-05-06T14:24:03.969Z</time>
      </trkpt>
      <trkpt lat="48.147072" lon="16.695378">
        <ele>149.930822</ele>
        <time>2026-05-06T14:24:16.253Z</time>
      </trkpt>
      <trkpt lat="48.146298" lon="16.697104">
        <ele>149.815848</ele>
        <time>2026-05-06T14:24:45.390Z</time>
      </trkpt>
      <trkpt lat="48.146229" lon="16.697461">
        <ele>149.701914</ele>
        <time>2026-05-06T14:24:50.360Z</time>
      </trkpt>
      <trkpt lat="48.146238" lon="16.697823">
        <ele>149.590869</ele>
        <time>2026-05-06T14:24:55.357Z</time>
      </trkpt>
      <trkpt lat="48.146221" lon="16.697949">
        <ele>149.551463</ele>
        <time>2026-05-06T14:24:57.170Z</time>
      </trkpt>
      <trkpt lat="48.146077" lon="16.698247">
        <ele>149.438674</ele>
        <time>2026-05-06T14:25:02.504Z</time>
      </trkpt>
      <trkpt lat="48.145849" lon="16.698558">
        <ele>149.366528</ele>
        <time>2026-05-06T14:25:09.541Z</time>
      </trkpt>
      <trkpt lat="48.145792" lon="16.698552">
        <ele>149.408669</ele>
        <time>2026-05-06T14:25:10.873Z</time>
      </trkpt>
      <trkpt lat="48.145216" lon="16.699597">
        <ele>150.075670</ele>
        <time>2026-05-06T14:25:34.243Z</time>
      </trkpt>
      <trkpt lat="48.145069" lon="16.700057">
        <ele>150.326655</ele>
        <time>2026-05-06T14:25:43.144Z</time>
      </trkpt>
      <trkpt lat="48.145002" lon="16.700432">
        <ele>150.517691</ele>
        <time>2026-05-06T14:25:50.118Z</time>
      </trkpt>
      <trkpt lat="48.144875" lon="16.700872">
        <ele>150.630388</ele>
        <time>2026-05-06T14:25:58.554Z</time>
      </trkpt>
      <trkpt lat="48.144860" lon="16.700923">
        <ele>150.625130</ele>
        <time>2026-05-06T14:25:59.484Z</time>
      </trkpt>
      <trkpt lat="48.144823" lon="16.701049">
        <ele>150.612145</ele>
        <time>2026-05-06T14:26:01.822Z</time>
      </trkpt>
      <trkpt lat="48.144826" lon="16.701251">
        <ele>150.593086</ele>
        <time>2026-05-06T14:26:05.149Z</time>
      </trkpt>
      <trkpt lat="48.144802" lon="16.701343">
        <ele>150.583768</ele>
        <time>2026-05-06T14:26:06.742Z</time>
      </trkpt>
      <trkpt lat="48.144562" lon="16.701639">
        <ele>150.539828</ele>
        <time>2026-05-06T14:26:13.973Z</time>
      </trkpt>
      <trkpt lat="48.144489" lon="16.701730">
        <ele>150.526404</ele>
        <time>2026-05-06T14:26:16.005Z</time>
      </trkpt>
      <trkpt lat="48.144374" lon="16.701823">
        <ele>150.507931</ele>
        <time>2026-05-06T14:26:18.703Z</time>
      </trkpt>
      <trkpt lat="48.144025" lon="16.702190">
        <ele>150.447659</ele>
        <time>2026-05-06T14:26:27.224Z</time>
      </trkpt>
      <trkpt lat="48.143947" lon="16.702367">
        <ele>150.427650</ele>
        <time>2026-05-06T14:26:30.070Z</time>
      </trkpt>
      <trkpt lat="48.143934" lon="16.702458">
        <ele>150.418872</ele>
        <time>2026-05-06T14:26:31.313Z</time>
      </trkpt>
      <trkpt lat="48.143745" lon="16.702549">
        <ele>150.363905</ele>
        <time>2026-05-06T14:26:35.218Z</time>
      </trkpt>
      <trkpt lat="48.143690" lon="16.702534">
        <ele>150.314531</ele>
        <time>2026-05-06T14:26:36.262Z</time>
      </trkpt>
      <trkpt lat="48.143245" lon="16.702128">
        <ele>149.854410</ele>
        <time>2026-05-06T14:26:45.991Z</time>
      </trkpt>
      <trkpt lat="48.143072" lon="16.702027">
        <ele>149.690434</ele>
        <time>2026-05-06T14:26:49.480Z</time>
      </trkpt>
      <trkpt lat="48.142908" lon="16.701996">
        <ele>149.544444</ele>
        <time>2026-05-06T14:26:52.584Z</time>
      </trkpt>
      <trkpt lat="48.142690" lon="16.702007">
        <ele>149.351799</ele>
        <time>2026-05-06T14:26:56.730Z</time>
      </trkpt>
      <trkpt lat="48.141957" lon="16.702456">
        <ele>148.866916</ele>
        <time>2026-05-06T14:27:12.974Z</time>
      </trkpt>
      <trkpt lat="48.141931" lon="16.702563">
        <ele>148.892692</ele>
        <time>2026-05-06T14:27:14.647Z</time>
      </trkpt>
      <trkpt lat="48.141584" lon="16.702781">
        <ele>149.020331</ele>
        <time>2026-05-06T14:27:23.102Z</time>
      </trkpt>
      <trkpt lat="48.141364" lon="16.702875">
        <ele>149.097936</ele>
        <time>2026-05-06T14:27:28.487Z</time>
      </trkpt>
      <trkpt lat="48.141252" lon="16.702902">
        <ele>149.136418</ele>
        <time>2026-05-06T14:27:31.223Z</time>
      </trkpt>
      <trkpt lat="48.140690" lon="16.702886">
        <ele>149.327101</ele>
        <time>2026-05-06T14:27:45.289Z</time>
      </trkpt>
      <trkpt lat="48.140231" lon="16.702873">
        <ele>149.540655</ele>
        <time>2026-05-06T14:27:57.006Z</time>
      </trkpt>
      <trkpt lat="48.139541" lon="16.702912">
        <ele>149.982341</ele>
        <time>2026-05-06T14:28:14.927Z</time>
      </trkpt>
      <trkpt lat="48.139365" lon="16.702953">
        <ele>150.096275</ele>
        <time>2026-05-06T14:28:19.481Z</time>
      </trkpt>
      <trkpt lat="48.139035" lon="16.703140">
        <ele>150.321955</ele>
        <time>2026-05-06T14:28:28.018Z</time>
      </trkpt>
      <trkpt lat="48.138824" lon="16.703321">
        <ele>150.477475</ele>
        <time>2026-05-06T14:28:33.774Z</time>
      </trkpt>
      <trkpt lat="48.138606" lon="16.703561">
        <ele>150.570623</ele>
        <time>2026-05-06T14:28:40.106Z</time>
      </trkpt>
      <trkpt lat="48.138265" lon="16.703951">
        <ele>150.579062</ele>
        <time>2026-05-06T14:28:49.791Z</time>
      </trkpt>
      <trkpt lat="48.137770" lon="16.704511">
        <ele>150.591265</ele>
        <time>2026-05-06T14:29:03.325Z</time>
      </trkpt>
      <trkpt lat="48.137165" lon="16.705205">
        <ele>150.559688</ele>
        <time>2026-05-06T14:29:20.186Z</time>
      </trkpt>
      <trkpt lat="48.136765" lon="16.705442">
        <ele>150.426427</ele>
        <time>2026-05-06T14:29:29.739Z</time>
      </trkpt>
      <trkpt lat="48.136458" lon="16.705559">
        <ele>150.328286</ele>
        <time>2026-05-06T14:29:36.676Z</time>
      </trkpt>
      <trkpt lat="48.135528" lon="16.705912">
        <ele>150.000230</ele>
        <time>2026-05-06T14:29:56.559Z</time>
      </trkpt>
      <trkpt lat="48.134627" lon="16.706286">
        <ele>149.121958</ele>
        <time>2026-05-06T14:30:14.025Z</time>
      </trkpt>
      <trkpt lat="48.134458" lon="16.706354">
        <ele>148.957576</ele>
        <time>2026-05-06T14:30:19.797Z</time>
      </trkpt>
      <trkpt lat="48.134375" lon="16.706381">
        <ele>148.877789</ele>
        <time>2026-05-06T14:30:21.379Z</time>
      </trkpt>
      <trkpt lat="48.133890" lon="16.706570">
        <ele>148.407027</ele>
        <time>2026-05-06T14:30:31.021Z</time>
      </trkpt>
      <trkpt lat="48.133857" lon="16.732889">
        <ele>150.947140</ele>
        <time>2026-05-06T14:37:13.711Z</time>
      </trkpt>
      <trkpt lat="48.133803" lon="16.758213">
        <ele>147.428651</ele>
        <time>2026-05-06T14:43:15.374Z</time>
      </trkpt>
      <trkpt lat="48.133759" lon="16.780753">
        <ele>149.150860</ele>
        <time>2026-05-06T14:48:58.598Z</time>
      </trkpt>
      <trkpt lat="48.133722" lon="16.794136">
        <ele>147.974967</ele>
        <time>2026-05-06T14:52:11.172Z</time>
      </trkpt>
      <trkpt lat="48.133724" lon="16.804937">
        <ele>147.988470</ele>
        <time>2026-05-06T14:54:53.531Z</time>
      </trkpt>
      <trkpt lat="48.133854" lon="16.811479">
        <ele>146.688385</ele>
        <time>2026-05-06T14:56:24.190Z</time>
      </trkpt>
      <trkpt lat="48.134016" lon="16.816642">
        <ele>147.269671</ele>
        <time>2026-05-06T14:57:44.406Z</time>
      </trkpt>
      <trkpt lat="48.134140" lon="16.819768">
        <ele>147.368224</ele>
        <time>2026-05-06T14:58:31.745Z</time>
      </trkpt>
      <trkpt lat="48.134340" lon="16.823762">
        <ele>145.673757</ele>
        <time>2026-05-06T14:59:24.610Z</time>
      </trkpt>
      <trkpt lat="48.134642" lon="16.828690">
        <ele>145.430093</ele>
        <time>2026-05-06T15:00:35.150Z</time>
      </trkpt>
      <trkpt lat="48.134869" lon="16.831856">
        <ele>146.259514</ele>
        <time>2026-05-06T15:01:36.186Z</time>
      </trkpt>
      <trkpt lat="48.135332" lon="16.837701">
        <ele>143.898506</ele>
        <time>2026-05-06T15:02:50.479Z</time>
      </trkpt>
      <trkpt lat="48.135736" lon="16.842016">
        <ele>143.186639</ele>
        <time>2026-05-06T15:03:55.096Z</time>
      </trkpt>
      <trkpt lat="48.135922" lon="16.843907">
        <ele>142.734810</ele>
        <time>2026-05-06T15:04:20.309Z</time>
      </trkpt>
      <trkpt lat="48.136634" lon="16.850383">
        <ele>145.171940</ele>
        <time>2026-05-06T15:06:09.680Z</time>
      </trkpt>
      <trkpt lat="48.136678" lon="16.850783">
        <ele>145.277444</ele>
        <time>2026-05-06T15:06:16.164Z</time>
      </trkpt>
      <trkpt lat="48.137234" lon="16.855245">
        <ele>145.679935</ele>
        <time>2026-05-06T15:07:32.020Z</time>
      </trkpt>
      <trkpt lat="48.137501" lon="16.857094">
        <ele>145.496404</ele>
        <time>2026-05-06T15:08:03.130Z</time>
      </trkpt>
      <trkpt lat="48.138000" lon="16.859971">
        <ele>143.734914</ele>
        <time>2026-05-06T15:08:45.405Z</time>
      </trkpt>
      <trkpt lat="48.138334" lon="16.861615">
        <ele>143.598779</ele>
        <time>2026-05-06T15:09:13.635Z</time>
      </trkpt>
      <trkpt lat="48.138873" lon="16.864001">
        <ele>143.709077</ele>
        <time>2026-05-06T15:09:56.703Z</time>
      </trkpt>
      <trkpt lat="48.139316" lon="16.865740">
        <ele>143.962211</ele>
        <time>2026-05-06T15:10:27.349Z</time>
      </trkpt>
      <trkpt lat="48.139665" lon="16.867022">
        <ele>144.203994</ele>
        <time>2026-05-06T15:10:51.801Z</time>
      </trkpt>
      <trkpt lat="48.140446" lon="16.869590">
        <ele>144.576421</ele>
        <time>2026-05-06T15:11:41.041Z</time>
      </trkpt>
      <trkpt lat="48.140964" lon="16.871161">
        <ele>144.279341</ele>
        <time>2026-05-06T15:12:08.183Z</time>
      </trkpt>
      <trkpt lat="48.141373" lon="16.872300">
        <ele>143.990278</ele>
        <time>2026-05-06T15:12:28.084Z</time>
      </trkpt>
      <trkpt lat="48.142533" lon="16.875348">
        <ele>143.879414</ele>
        <time>2026-05-06T15:13:25.112Z</time>
      </trkpt>
      <trkpt lat="48.143886" lon="16.878623">
        <ele>144.856269</ele>
        <time>2026-05-06T15:14:31.972Z</time>
      </trkpt>
      <trkpt lat="48.144545" lon="16.880040">
        <ele>145.403583</ele>
        <time>2026-05-06T15:15:05.298Z</time>
      </trkpt>
      <trkpt lat="48.145067" lon="16.881166">
        <ele>145.800148</ele>
        <time>2026-05-06T15:15:26.901Z</time>
      </trkpt>
      <trkpt lat="48.145770" lon="16.882798">
        <ele>145.153809</ele>
        <time>2026-05-06T15:15:53.548Z</time>
      </trkpt>
      <trkpt lat="48.146001" lon="16.883298">
        <ele>144.890601</ele>
        <time>2026-05-06T15:16:01.372Z</time>
      </trkpt>
      <trkpt lat="48.146005" lon="16.883172">
        <ele>144.836007</ele>
        <time>2026-05-06T15:16:02.975Z</time>
      </trkpt>
      <trkpt lat="48.146039" lon="16.882089">
        <ele>144.275987</ele>
        <time>2026-05-06T15:16:17.490Z</time>
      </trkpt>
      <trkpt lat="48.146038" lon="16.882014">
        <ele>144.234967</ele>
        <time>2026-05-06T15:16:18.471Z</time>
      </trkpt>
      <trkpt lat="48.146149" lon="16.882145">
        <ele>144.119180</ele>
        <time>2026-05-06T15:16:21.153Z</time>
      </trkpt>
      <trkpt lat="48.146636" lon="16.882997">
        <ele>143.505710</ele>
        <time>2026-05-06T15:16:35.543Z</time>
      </trkpt>
      <trkpt lat="48.147486" lon="16.884661">
        <ele>143.081621</ele>
        <time>2026-05-06T15:17:05.953Z</time>
      </trkpt>
      <trkpt lat="48.149292" lon="16.888062">
        <ele>142.940706</ele>
        <time>2026-05-06T15:18:10.220Z</time>
      </trkpt>
      <trkpt lat="48.151690" lon="16.892423">
        <ele>143.274873</ele>
        <time>2026-05-06T15:19:35.168Z</time>
      </trkpt>
      <trkpt lat="48.156297" lon="16.900675">
        <ele>145.089864</ele>
        <time>2026-05-06T15:22:21.233Z</time>
      </trkpt>
      <trkpt lat="48.156494" lon="16.900799">
        <ele>145.242898</ele>
        <time>2026-05-06T15:22:26.890Z</time>
      </trkpt>
      <trkpt lat="48.157328" lon="16.900263">
        <ele>145.892830</ele>
        <time>2026-05-06T15:22:50.739Z</time>
      </trkpt>
      <trkpt lat="48.157402" lon="16.900243">
        <ele>145.946686</ele>
        <time>2026-05-06T15:22:52.693Z</time>
      </trkpt>
      <trkpt lat="48.157395" lon="16.900311">
        <ele>145.979561</ele>
        <time>2026-05-06T15:22:53.863Z</time>
      </trkpt>
      <trkpt lat="48.156863" lon="16.900675">
        <ele>146.261285</ele>
        <time>2026-05-06T15:23:08.175Z</time>
      </trkpt>
      <trkpt lat="48.156849" lon="16.900685">
        <ele>146.268588</ele>
        <time>2026-05-06T15:23:08.556Z</time>
      </trkpt>
      <trkpt lat="48.150008" lon="16.905429">
        <ele>149.805925</ele>
        <time>2026-05-06T15:26:09.771Z</time>
      </trkpt>
      <trkpt lat="48.149204" lon="16.905987">
        <ele>150.211615</ele>
        <time>2026-05-06T15:26:31.105Z</time>
      </trkpt>
      <trkpt lat="48.147758" lon="16.906990">
        <ele>151.044498</ele>
        <time>2026-05-06T15:27:09.476Z</time>
      </trkpt>
      <trkpt lat="48.141300" lon="16.911457">
        <ele>156.231167</ele>
        <time>2026-05-06T15:30:06.366Z</time>
      </trkpt>
      <trkpt lat="48.140668" lon="16.911892">
        <ele>156.296778</ele>
        <time>2026-05-06T15:30:29.733Z</time>
      </trkpt>
      <trkpt lat="48.140362" lon="16.912036">
        <ele>156.114780</ele>
        <time>2026-05-06T15:30:38.335Z</time>
      </trkpt>
      <trkpt lat="48.140198" lon="16.912029">
        <ele>156.021681</ele>
        <time>2026-05-06T15:30:42.245Z</time>
      </trkpt>
      <trkpt lat="48.140121" lon="16.911908">
        <ele>155.958369</ele>
        <time>2026-05-06T15:30:44.640Z</time>
      </trkpt>
      <trkpt lat="48.140103" lon="16.911793">
        <ele>155.913641</ele>
        <time>2026-05-06T15:30:46.212Z</time>
      </trkpt>
      <trkpt lat="48.140450" lon="16.911747">
        <ele>155.715969</ele>
        <time>2026-05-06T15:30:52.398Z</time>
      </trkpt>
      <trkpt lat="48.140760" lon="16.911630">
        <ele>155.534569</ele>
        <time>2026-05-06T15:30:57.545Z</time>
      </trkpt>
      <trkpt lat="48.141019" lon="16.911442">
        <ele>154.624615</ele>
        <time>2026-05-06T15:31:01.943Z</time>
      </trkpt>
      <trkpt lat="48.141220" lon="16.911224">
        <ele>153.729373</ele>
        <time>2026-05-06T15:31:05.600Z</time>
      </trkpt>
      <trkpt lat="48.141338" lon="16.911063">
        <ele>153.153584</ele>
        <time>2026-05-06T15:31:07.970Z</time>
      </trkpt>
      <trkpt lat="48.141453" lon="16.910818">
        <ele>152.432383</ele>
        <time>2026-05-06T15:31:11.010Z</time>
      </trkpt>
      <trkpt lat="48.141582" lon="16.910794">
        <ele>151.963362</ele>
        <time>2026-05-06T15:31:13.017Z</time>
      </trkpt>
      <trkpt lat="48.141538" lon="16.910413">
        <ele>151.032402</ele>
        <time>2026-05-06T15:31:17.095Z</time>
      </trkpt>
      <trkpt lat="48.141573" lon="16.910011">
        <ele>150.056313</ele>
        <time>2026-05-06T15:31:21.546Z</time>
      </trkpt>
      <trkpt lat="48.141567" lon="16.908937">
        <ele>148.741929</ele>
        <time>2026-05-06T15:31:34.698Z</time>
      </trkpt>
      <trkpt lat="48.141519" lon="16.908194">
        <ele>148.418581</ele>
        <time>2026-05-06T15:31:45.142Z</time>
      </trkpt>
      <trkpt lat="48.141416" lon="16.907396">
        <ele>148.066506</ele>
        <time>2026-05-06T15:31:57.552Z</time>
      </trkpt>
      <trkpt lat="48.141368" lon="16.907157">
        <ele>147.958392</ele>
        <time>2026-05-06T15:32:01.281Z</time>
      </trkpt>
      <trkpt lat="48.141067" lon="16.906080">
        <ele>147.428059</ele>
        <time>2026-05-06T15:32:17.246Z</time>
      </trkpt>
      <trkpt lat="48.140907" lon="16.905574">
        <ele>147.170654</ele>
        <time>2026-05-06T15:32:24.372Z</time>
      </trkpt>
      <trkpt lat="48.140765" lon="16.905142">
        <ele>146.949275</ele>
        <time>2026-05-06T15:32:30.579Z</time>
      </trkpt>
      <trkpt lat="48.140526" lon="16.904402">
        <ele>146.645823</ele>
        <time>2026-05-06T15:32:41.245Z</time>
      </trkpt>
      <trkpt lat="48.140419" lon="16.904078">
        <ele>146.768323</ele>
        <time>2026-05-06T15:32:46.336Z</time>
      </trkpt>
      <trkpt lat="48.140363" lon="16.903908">
        <ele>146.832566</ele>
        <time>2026-05-06T15:32:49.110Z</time>
      </trkpt>
      <trkpt lat="48.140336" lon="16.903733">
        <ele>146.893431</ele>
        <time>2026-05-06T15:32:51.801Z</time>
      </trkpt>
      <trkpt lat="48.140337" lon="16.903518">
        <ele>146.966288</ele>
        <time>2026-05-06T15:32:55.180Z</time>
      </trkpt>
      <trkpt lat="48.140368" lon="16.903373">
        <ele>147.017883</ele>
        <time>2026-05-06T15:32:57.695Z</time>
      </trkpt>
      <trkpt lat="48.140467" lon="16.903338">
        <ele>147.069535</ele>
        <time>2026-05-06T15:33:00.325Z</time>
      </trkpt>
      <trkpt lat="48.140487" lon="16.903189">
        <ele>147.121037</ele>
        <time>2026-05-06T15:33:03.028Z</time>
      </trkpt>
      <trkpt lat="48.140422" lon="16.903102">
        <ele>147.165293</ele>
        <time>2026-05-06T15:33:05.369Z</time>
      </trkpt>
      <trkpt lat="48.140377" lon="16.903102">
        <ele>147.188144</ele>
        <time>2026-05-06T15:33:06.588Z</time>
      </trkpt>
      <trkpt lat="48.140326" lon="16.903151">
        <ele>147.218907</ele>
        <time>2026-05-06T15:33:08.243Z</time>
      </trkpt>
      <trkpt lat="48.140305" lon="16.903237">
        <ele>147.249939</ele>
        <time>2026-05-06T15:33:09.937Z</time>
      </trkpt>
      <trkpt lat="48.140187" lon="16.903246">
        <ele>147.309938</ele>
        <time>2026-05-06T15:33:13.192Z</time>
      </trkpt>
      <trkpt lat="48.139879" lon="16.903263">
        <ele>147.466447</ele>
        <time>2026-05-06T15:33:21.644Z</time>
      </trkpt>
      <trkpt lat="48.139559" lon="16.903289">
        <ele>147.527574</ele>
        <time>2026-05-06T15:33:29.771Z</time>
      </trkpt>
      <trkpt lat="48.139430" lon="16.903301">
        <ele>147.527574</ele>
        <time>2026-05-06T15:33:33.141Z</time>
      </trkpt>
      <trkpt lat="48.139222" lon="16.903321">
        <ele>147.527574</ele>
        <time>2026-05-06T15:33:38.576Z</time>
      </trkpt>
      <trkpt lat="48.138447" lon="16.903633">
        <ele>147.527574</ele>
        <time>2026-05-06T15:33:57.680Z</time>
      </trkpt>
      <trkpt lat="48.137673" lon="16.904261">
        <ele>147.527574</ele>
        <time>2026-05-06T15:34:17.661Z</time>
      </trkpt>
      <trkpt lat="48.137769" lon="16.904529">
        <ele>147.527574</ele>
        <time>2026-05-06T15:34:22.589Z</time>
      </trkpt>
      <trkpt lat="48.137826" lon="16.904556">
        <ele>147.527574</ele>
        <time>2026-05-06T15:34:24.042Z</time>
      </trkpt>
      <trkpt lat="48.137940" lon="16.904493">
        <ele>147.527574</ele>
        <time>2026-05-06T15:34:27.037Z</time>
      </trkpt>
    </trkseg>
  </trk>
</gpx>